Wetterdaten: Mittwoch, 29.04.2026
Datum Zeit Temp. Aussen Temp. o. S. Temp +5cm Feuchte Auss Luftdruck Regen Sonnenschein Solar Windböen Empfang
29.04.2026 00:00 12,1 °C 11,1 °C 7,8 °C 55 % 1023,7 hPa 0,0 l/m² 0 min 0 W/m² 9,7 km/h (2 Bft) 100,00 %
29.04.2026 00:02 12,1 °C 11,1 °C 7,8 °C 55 % 1023,7 hPa 0,0 l/m² 0 min 0 W/m² 6,4 km/h (2 Bft) 95,35 %
29.04.2026 00:04 12,1 °C 10,6 °C 7,8 °C 55 % 1023,7 hPa 0,0 l/m² 0 min 0 W/m² 6,4 km/h (2 Bft) 97,87 %
29.04.2026 00:07 12,0 °C 10,6 °C 7,8 °C 55 % 1023,8 hPa 0,0 l/m² 0 min 0 W/m² 12,9 km/h (3 Bft) 95,71 %
29.04.2026 00:08 11,9 °C 10,6 °C 7,8 °C 55 % 1023,8 hPa 0,0 l/m² 0 min 0 W/m² 6,4 km/h (2 Bft) 100,00 %
29.04.2026 00:10 11,9 °C 10,6 °C 7,8 °C 55 % 1023,8 hPa 0,0 l/m² 0 min 0 W/m² 9,7 km/h (2 Bft) 100,00 %
29.04.2026 00:12 11,9 °C 10,6 °C 7,8 °C 56 % 1023,9 hPa 0,0 l/m² 0 min 0 W/m² 12,9 km/h (3 Bft) 97,83 %
29.04.2026 00:14 11,9 °C 10,6 °C 7,8 °C 56 % 1023,9 hPa 0,0 l/m² 0 min 0 W/m² 9,7 km/h (2 Bft) 100,00 %
29.04.2026 00:16 11,8 °C 10,6 °C 7,2 °C 55 % 1023,9 hPa 0,0 l/m² 0 min 0 W/m² 16,1 km/h (3 Bft) 100,00 %
29.04.2026 00:18 11,8 °C 10,6 °C 7,2 °C 55 % 1023,9 hPa 0,0 l/m² 0 min 0 W/m² 6,4 km/h (2 Bft) 97,87 %
29.04.2026 00:20 11,8 °C 10,6 °C 7,2 °C 56 % 1023,9 hPa 0,0 l/m² 0 min 0 W/m² 12,9 km/h (3 Bft) 98,00 %
29.04.2026 00:22 11,7 °C 10,6 °C 7,2 °C 56 % 1023,9 hPa 0,0 l/m² 0 min 0 W/m² 3,2 km/h (1 Bft) 97,87 %
29.04.2026 00:24 11,7 °C 10,6 °C 7,2 °C 56 % 1024,0 hPa 0,0 l/m² 0 min 0 W/m² 6,4 km/h (2 Bft) 93,62 %
29.04.2026 00:26 11,6 °C 10,6 °C 7,2 °C 57 % 1024,0 hPa 0,0 l/m² 0 min 0 W/m² 6,4 km/h (2 Bft) 93,62 %
29.04.2026 00:28 11,6 °C 10,6 °C 7,2 °C 56 % 1024,0 hPa 0,0 l/m² 0 min 0 W/m² 6,4 km/h (2 Bft) 97,87 %
29.04.2026 00:30 11,6 °C 10,6 °C 7,2 °C 56 % 1024,0 hPa 0,0 l/m² 0 min 0 W/m² 9,7 km/h (2 Bft) 100,00 %
29.04.2026 00:32 11,5 °C 10,0 °C 7,2 °C 56 % 1024,0 hPa 0,0 l/m² 0 min 0 W/m² 9,7 km/h (2 Bft) 100,00 %
29.04.2026 00:34 11,4 °C 10,0 °C 7,2 °C 57 % 1024,0 hPa 0,0 l/m² 0 min 0 W/m² 6,4 km/h (2 Bft) 100,00 %
29.04.2026 00:36 11,4 °C 10,0 °C 7,2 °C 57 % 1024,0 hPa 0,0 l/m² 0 min 0 W/m² 9,7 km/h (2 Bft) 100,00 %
29.04.2026 00:38 11,4 °C 10,0 °C 7,2 °C 57 % 1024,0 hPa 0,0 l/m² 0 min 0 W/m² 9,7 km/h (2 Bft) 100,00 %
29.04.2026 00:40 11,3 °C 10,0 °C 6,7 °C 57 % 1024,1 hPa 0,0 l/m² 0 min 0 W/m² 9,7 km/h (2 Bft) 97,87 %
29.04.2026 00:42 11,3 °C 10,0 °C 6,7 °C 58 % 1024,1 hPa 0,0 l/m² 0 min 0 W/m² 6,4 km/h (2 Bft) 100,00 %
29.04.2026 00:44 11,2 °C 10,0 °C 6,7 °C 58 % 1024,1 hPa 0,0 l/m² 0 min 0 W/m² 6,4 km/h (2 Bft) 100,00 %
29.04.2026 00:46 11,2 °C 10,0 °C 6,7 °C 58 % 1024,1 hPa 0,0 l/m² 0 min 0 W/m² 9,7 km/h (2 Bft) 100,00 %
29.04.2026 00:48 11,2 °C 10,0 °C 6,7 °C 58 % 1024,2 hPa 0,0 l/m² 0 min 0 W/m² 6,4 km/h (2 Bft) 100,00 %
29.04.2026 00:50 11,1 °C 10,0 °C 6,7 °C 58 % 1024,2 hPa 0,0 l/m² 0 min 0 W/m² 6,4 km/h (2 Bft) 100,00 %
29.04.2026 00:52 11,1 °C 10,0 °C 6,7 °C 58 % 1024,2 hPa 0,0 l/m² 0 min 0 W/m² 3,2 km/h (1 Bft) 100,00 %
29.04.2026 00:54 11,1 °C 10,0 °C 6,7 °C 58 % 1024,2 hPa 0,0 l/m² 0 min 0 W/m² 0,0 km/h (0 Bft) 100,00 %
29.04.2026 00:56 11,0 °C 9,4 °C 6,7 °C 58 % 1024,2 hPa 0,0 l/m² 0 min 0 W/m² 0,0 km/h (0 Bft) 100,00 %
29.04.2026 00:58 10,9 °C 9,4 °C 6,7 °C 58 % 1024,2 hPa 0,0 l/m² 0 min 0 W/m² 0,0 km/h (0 Bft) 100,00 %
29.04.2026 01:00 10,9 °C 9,4 °C 6,7 °C 58 % 1024,1 hPa 0,0 l/m² 0 min 0 W/m² 0,0 km/h (0 Bft) 100,00 %
29.04.2026 01:02 10,9 °C 9,4 °C 6,7 °C 58 % 1024,1 hPa 0,0 l/m² 0 min 0 W/m² 0,0 km/h (0 Bft) 74,47 %
29.04.2026 01:04 10,8 °C 9,4 °C 6,7 °C 59 % 1024,1 hPa 0,0 l/m² 0 min 0 W/m² 0,0 km/h (0 Bft) 75,76 %
29.04.2026 01:06 10,8 °C 9,4 °C 6,7 °C 59 % 1024,1 hPa 0,0 l/m² 0 min 0 W/m² 0,0 km/h (0 Bft) 95,65 %
29.04.2026 01:08 10,8 °C 9,4 °C 6,7 °C 59 % 1024,1 hPa 0,0 l/m² 0 min 0 W/m² 0,0 km/h (0 Bft) 97,87 %
29.04.2026 01:10 10,7 °C 9,4 °C 6,1 °C 59 % 1024,1 hPa 0,0 l/m² 0 min 0 W/m² 0,0 km/h (0 Bft) 96,00 %
29.04.2026 01:12 10,7 °C 9,4 °C 6,1 °C 60 % 1024,1 hPa 0,0 l/m² 0 min 0 W/m² 0,0 km/h (0 Bft) 97,87 %
29.04.2026 01:14 10,7 °C 9,4 °C 6,1 °C 60 % 1024,1 hPa 0,0 l/m² 0 min 0 W/m² 0,0 km/h (0 Bft) 97,87 %
29.04.2026 01:16 10,6 °C 9,4 °C 6,1 °C 60 % 1024,1 hPa 0,0 l/m² 0 min 0 W/m² 0,0 km/h (0 Bft) 95,74 %
29.04.2026 01:18 10,6 °C 9,4 °C 6,1 °C 60 % 1024,1 hPa 0,0 l/m² 0 min 0 W/m² 0,0 km/h (0 Bft) 93,62 %
29.04.2026 01:20 10,5 °C 9,4 °C 6,1 °C 60 % 1024,1 hPa 0,0 l/m² 0 min 0 W/m² 0,0 km/h (0 Bft) 97,83 %
29.04.2026 01:22 10,5 °C 9,4 °C 6,1 °C 59 % 1024,1 hPa 0,0 l/m² 0 min 0 W/m² 3,2 km/h (1 Bft) 97,87 %
29.04.2026 01:24 10,4 °C 9,4 °C 6,1 °C 59 % 1024,1 hPa 0,0 l/m² 0 min 0 W/m² 3,2 km/h (1 Bft) 95,74 %
29.04.2026 01:26 10,4 °C 9,4 °C 6,1 °C 59 % 1024,1 hPa 0,0 l/m² 0 min 0 W/m² 3,2 km/h (1 Bft) 97,87 %
29.04.2026 01:28 10,4 °C 9,4 °C 6,1 °C 59 % 1024,1 hPa 0,0 l/m² 0 min 0 W/m² 3,2 km/h (1 Bft) 96,00 %
29.04.2026 01:30 10,3 °C 8,9 °C 6,1 °C 59 % 1024,1 hPa 0,0 l/m² 0 min 0 W/m² 3,2 km/h (1 Bft) 95,74 %
29.04.2026 01:32 10,3 °C 8,9 °C 6,1 °C 59 % 1024,2 hPa 0,0 l/m² 0 min 0 W/m² 3,2 km/h (1 Bft) 94,74 %
29.04.2026 01:34 10,3 °C 8,9 °C 6,1 °C 59 % 1024,2 hPa 0,0 l/m² 0 min 0 W/m² 0,0 km/h (0 Bft) 95,74 %
29.04.2026 01:36 10,3 °C 8,9 °C 6,1 °C 59 % 1024,2 hPa 0,0 l/m² 0 min 0 W/m² 3,2 km/h (1 Bft) 95,74 %
29.04.2026 01:38 10,2 °C 8,9 °C 6,1 °C 60 % 1024,2 hPa 0,0 l/m² 0 min 0 W/m² 3,2 km/h (1 Bft) 91,49 %
29.04.2026 01:40 10,2 °C 8,9 °C 6,1 °C 59 % 1024,2 hPa 0,0 l/m² 0 min 0 W/m² 3,2 km/h (1 Bft) 95,65 %
29.04.2026 01:42 10,2 °C 8,9 °C 6,1 °C 59 % 1024,2 hPa 0,0 l/m² 0 min 0 W/m² 3,2 km/h (1 Bft) 94,00 %
29.04.2026 01:44 10,1 °C 8,9 °C 5,6 °C 59 % 1024,3 hPa 0,0 l/m² 0 min 0 W/m² 3,2 km/h (1 Bft) 94,00 %
29.04.2026 01:46 10,1 °C 8,9 °C 5,6 °C 60 % 1024,3 hPa 0,0 l/m² 0 min 0 W/m² 3,2 km/h (1 Bft) 93,62 %
29.04.2026 01:48 10,1 °C 8,9 °C 5,6 °C 60 % 1024,3 hPa 0,0 l/m² 0 min 0 W/m² 3,2 km/h (1 Bft) 89,36 %
29.04.2026 01:50 10,1 °C 8,9 °C 5,6 °C 60 % 1024,3 hPa 0,0 l/m² 0 min 0 W/m² 3,2 km/h (1 Bft) 91,49 %
29.04.2026 01:52 10,0 °C 8,9 °C 5,6 °C 60 % 1024,3 hPa 0,0 l/m² 0 min 0 W/m² 3,2 km/h (1 Bft) 91,49 %
29.04.2026 01:54 10,0 °C 8,9 °C 5,6 °C 60 % 1024,3 hPa 0,0 l/m² 0 min 0 W/m² 6,4 km/h (2 Bft) 97,37 %
29.04.2026 01:56 9,9 °C 8,9 °C 5,6 °C 60 % 1024,3 hPa 0,0 l/m² 0 min 0 W/m² 9,7 km/h (2 Bft) 91,84 %
29.04.2026 01:58 9,9 °C 8,9 °C 5,6 °C 60 % 1024,3 hPa 0,0 l/m² 0 min 0 W/m² 6,4 km/h (2 Bft) 91,49 %
29.04.2026 02:00 9,9 °C 8,9 °C 5,6 °C 60 % 1024,3 hPa 0,0 l/m² 0 min 0 W/m² 6,4 km/h (2 Bft) 92,00 %
29.04.2026 02:02 9,9 °C 8,9 °C 5,6 °C 60 % 1024,3 hPa 0,0 l/m² 0 min 0 W/m² 3,2 km/h (1 Bft) 91,49 %
29.04.2026 02:04 9,9 °C 8,9 °C 5,6 °C 60 % 1024,3 hPa 0,0 l/m² 0 min 0 W/m² 6,4 km/h (2 Bft) 96,00 %
29.04.2026 02:06 9,9 °C 8,9 °C 5,6 °C 60 % 1024,3 hPa 0,0 l/m² 0 min 0 W/m² 6,4 km/h (2 Bft) 95,74 %
29.04.2026 02:08 9,9 °C 8,9 °C 5,6 °C 60 % 1024,3 hPa 0,0 l/m² 0 min 0 W/m² 6,4 km/h (2 Bft) 97,87 %
29.04.2026 02:10 9,9 °C 8,9 °C 5,6 °C 60 % 1024,3 hPa 0,0 l/m² 0 min 0 W/m² 6,4 km/h (2 Bft) 93,48 %
29.04.2026 02:12 9,9 °C 8,9 °C 5,6 °C 60 % 1024,3 hPa 0,0 l/m² 0 min 0 W/m² 12,9 km/h (3 Bft) 100,00 %
29.04.2026 02:14 9,9 °C 9,4 °C 6,1 °C 60 % 1024,3 hPa 0,0 l/m² 0 min 0 W/m² 9,7 km/h (2 Bft) 100,00 %
29.04.2026 02:16 10,0 °C 9,4 °C 6,1 °C 60 % 1024,3 hPa 0,0 l/m² 0 min 0 W/m² 9,7 km/h (2 Bft) 97,87 %
29.04.2026 02:18 10,0 °C 9,4 °C 6,1 °C 59 % 1024,3 hPa 0,0 l/m² 0 min 0 W/m² 6,4 km/h (2 Bft) 100,00 %
29.04.2026 02:20 10,0 °C 8,9 °C 6,1 °C 60 % 1024,3 hPa 0,0 l/m² 0 min 0 W/m² 6,4 km/h (2 Bft) 97,87 %
29.04.2026 02:22 10,1 °C 8,9 °C 5,6 °C 60 % 1024,2 hPa 0,0 l/m² 0 min 0 W/m² 6,4 km/h (2 Bft) 100,00 %
29.04.2026 02:24 10,0 °C 8,9 °C 5,6 °C 60 % 1024,2 hPa 0,0 l/m² 0 min 0 W/m² 3,2 km/h (1 Bft) 100,00 %
29.04.2026 02:26 10,0 °C 8,9 °C 5,6 °C 60 % 1024,3 hPa 0,0 l/m² 0 min 0 W/m² 9,7 km/h (2 Bft) 97,87 %
29.04.2026 02:28 10,0 °C 8,9 °C 5,6 °C 60 % 1024,3 hPa 0,0 l/m² 0 min 0 W/m² 3,2 km/h (1 Bft) 97,83 %
29.04.2026 02:30 9,9 °C 8,9 °C 5,6 °C 59 % 1024,4 hPa 0,0 l/m² 0 min 0 W/m² 12,9 km/h (3 Bft) 100,00 %
29.04.2026 02:32 9,9 °C 8,9 °C 5,6 °C 60 % 1024,4 hPa 0,0 l/m² 0 min 0 W/m² 9,7 km/h (2 Bft) 97,87 %
29.04.2026 02:34 9,9 °C 8,9 °C 5,6 °C 59 % 1024,4 hPa 0,0 l/m² 0 min 0 W/m² 16,1 km/h (3 Bft) 100,00 %
29.04.2026 02:36 9,9 °C 8,9 °C 5,6 °C 60 % 1024,4 hPa 0,0 l/m² 0 min 0 W/m² 12,9 km/h (3 Bft) 100,00 %
29.04.2026 02:38 9,9 °C 8,9 °C 5,6 °C 60 % 1024,3 hPa 0,0 l/m² 0 min 0 W/m² 12,9 km/h (3 Bft) 100,00 %
29.04.2026 02:40 9,9 °C 8,9 °C 5,6 °C 60 % 1024,3 hPa 0,0 l/m² 0 min 0 W/m² 6,4 km/h (2 Bft) 97,37 %
29.04.2026 02:42 9,9 °C 8,9 °C 5,6 °C 60 % 1024,5 hPa 0,0 l/m² 0 min 0 W/m² 9,7 km/h (2 Bft) 100,00 %
29.04.2026 02:44 9,9 °C 8,9 °C 5,6 °C 60 % 1024,4 hPa 0,0 l/m² 0 min 0 W/m² 12,9 km/h (3 Bft) 97,96 %
29.04.2026 02:46 9,8 °C 8,9 °C 5,6 °C 60 % 1024,5 hPa 0,0 l/m² 0 min 0 W/m² 6,4 km/h (2 Bft) 100,00 %
29.04.2026 02:48 9,8 °C 8,9 °C 5,6 °C 60 % 1024,5 hPa 0,0 l/m² 0 min 0 W/m² 9,7 km/h (2 Bft) 100,00 %
29.04.2026 02:50 9,8 °C 8,9 °C 5,6 °C 60 % 1024,5 hPa 0,0 l/m² 0 min 0 W/m² 16,1 km/h (3 Bft) 100,00 %
29.04.2026 02:52 9,8 °C 8,9 °C 5,6 °C 60 % 1024,5 hPa 0,0 l/m² 0 min 0 W/m² 6,4 km/h (2 Bft) 100,00 %
29.04.2026 02:54 9,8 °C 8,9 °C 5,6 °C 60 % 1024,6 hPa 0,0 l/m² 0 min 0 W/m² 9,7 km/h (2 Bft) 100,00 %
29.04.2026 02:56 9,8 °C 8,9 °C 5,6 °C 60 % 1024,5 hPa 0,0 l/m² 0 min 0 W/m² 9,7 km/h (2 Bft) 100,00 %
29.04.2026 02:58 9,8 °C 8,9 °C 5,6 °C 60 % 1024,6 hPa 0,0 l/m² 0 min 0 W/m² 9,7 km/h (2 Bft) 100,00 %
29.04.2026 03:00 9,8 °C 8,9 °C 5,6 °C 60 % 1024,6 hPa 0,0 l/m² 0 min 0 W/m² 6,4 km/h (2 Bft) 97,87 %
29.04.2026 03:02 9,8 °C 8,3 °C 5,6 °C 60 % 1024,6 hPa 0,0 l/m² 0 min 0 W/m² 6,4 km/h (2 Bft) 100,00 %
29.04.2026 03:04 9,7 °C 8,3 °C 5,6 °C 60 % 1024,6 hPa 0,0 l/m² 0 min 0 W/m² 6,4 km/h (2 Bft) 100,00 %
29.04.2026 03:06 9,7 °C 8,3 °C 5,6 °C 59 % 1024,6 hPa 0,0 l/m² 0 min 0 W/m² 9,7 km/h (2 Bft) 100,00 %
29.04.2026 03:08 9,7 °C 8,3 °C 5,6 °C 60 % 1024,6 hPa 0,0 l/m² 0 min 0 W/m² 6,4 km/h (2 Bft) 100,00 %
29.04.2026 03:10 9,7 °C 8,3 °C 5,6 °C 60 % 1024,6 hPa 0,0 l/m² 0 min 0 W/m² 6,4 km/h (2 Bft) 100,00 %
29.04.2026 03:12 9,7 °C 8,3 °C 5,0 °C 60 % 1024,6 hPa 0,0 l/m² 0 min 0 W/m² 6,4 km/h (2 Bft) 97,87 %
29.04.2026 03:14 9,6 °C 8,3 °C 5,0 °C 60 % 1024,6 hPa 0,0 l/m² 0 min 0 W/m² 6,4 km/h (2 Bft) 100,00 %
29.04.2026 03:16 9,6 °C 8,3 °C 5,0 °C 61 % 1024,6 hPa 0,0 l/m² 0 min 0 W/m² 3,2 km/h (1 Bft) 100,00 %
29.04.2026 03:18 9,6 °C 8,3 °C 5,0 °C 61 % 1024,6 hPa 0,0 l/m² 0 min 0 W/m² 3,2 km/h (1 Bft) 100,00 %
29.04.2026 03:20 9,5 °C 8,3 °C 5,0 °C 61 % 1024,7 hPa 0,0 l/m² 0 min 0 W/m² 3,2 km/h (1 Bft) 95,74 %
29.04.2026 03:22 9,4 °C 7,8 °C 5,0 °C 61 % 1024,7 hPa 0,0 l/m² 0 min 0 W/m² 6,4 km/h (2 Bft) 100,00 %
29.04.2026 03:24 9,4 °C 7,8 °C 5,0 °C 61 % 1024,7 hPa 0,0 l/m² 0 min 0 W/m² 9,7 km/h (2 Bft) 97,87 %
29.04.2026 03:26 9,3 °C 7,8 °C 5,0 °C 61 % 1024,7 hPa 0,0 l/m² 0 min 0 W/m² 6,4 km/h (2 Bft) 94,00 %
29.04.2026 03:28 9,3 °C 7,8 °C 5,0 °C 61 % 1024,6 hPa 0,0 l/m² 0 min 0 W/m² 6,4 km/h (2 Bft) 97,83 %
29.04.2026 03:30 9,2 °C 7,8 °C 5,0 °C 61 % 1024,6 hPa 0,0 l/m² 0 min 0 W/m² 6,4 km/h (2 Bft) 97,92 %
29.04.2026 03:32 9,2 °C 7,8 °C 5,0 °C 62 % 1024,7 hPa 0,0 l/m² 0 min 0 W/m² 12,9 km/h (3 Bft) 97,83 %
29.04.2026 03:34 9,2 °C 7,8 °C 5,0 °C 61 % 1024,6 hPa 0,0 l/m² 0 min 0 W/m² 6,4 km/h (2 Bft) 97,87 %
29.04.2026 03:36 9,1 °C 7,8 °C 5,0 °C 61 % 1024,6 hPa 0,0 l/m² 0 min 0 W/m² 3,2 km/h (1 Bft) 95,74 %
29.04.2026 03:38 9,1 °C 8,3 °C 5,0 °C 61 % 1024,6 hPa 0,0 l/m² 0 min 0 W/m² 19,3 km/h (3 Bft) 97,87 %
29.04.2026 03:40 9,1 °C 8,3 °C 5,0 °C 61 % 1024,7 hPa 0,0 l/m² 0 min 0 W/m² 12,9 km/h (3 Bft) 97,14 %
29.04.2026 03:42 9,1 °C 8,3 °C 5,0 °C 61 % 1024,7 hPa 0,0 l/m² 0 min 0 W/m² 12,9 km/h (3 Bft) 96,23 %
29.04.2026 03:44 9,2 °C 8,3 °C 5,0 °C 61 % 1024,6 hPa 0,0 l/m² 0 min 0 W/m² 16,1 km/h (3 Bft) 93,62 %
29.04.2026 03:46 9,2 °C 8,3 °C 5,0 °C 61 % 1024,7 hPa 0,0 l/m² 0 min 0 W/m² 12,9 km/h (3 Bft) 95,65 %
29.04.2026 03:48 9,2 °C 8,3 °C 5,0 °C 61 % 1024,6 hPa 0,0 l/m² 0 min 0 W/m² 9,7 km/h (2 Bft) 95,74 %
29.04.2026 03:50 9,2 °C 8,3 °C 5,0 °C 61 % 1024,6 hPa 0,0 l/m² 0 min 0 W/m² 12,9 km/h (3 Bft) 93,62 %
29.04.2026 03:52 9,2 °C 8,3 °C 5,0 °C 61 % 1024,6 hPa 0,0 l/m² 0 min 0 W/m² 9,7 km/h (2 Bft) 95,74 %
29.04.2026 03:54 9,2 °C 8,3 °C 5,0 °C 61 % 1024,7 hPa 0,0 l/m² 0 min 0 W/m² 6,4 km/h (2 Bft) 96,00 %
29.04.2026 03:56 9,2 °C 8,3 °C 5,0 °C 61 % 1024,7 hPa 0,0 l/m² 0 min 0 W/m² 12,9 km/h (3 Bft) 97,87 %
29.04.2026 03:58 9,1 °C 8,3 °C 5,0 °C 61 % 1024,7 hPa 0,0 l/m² 0 min 0 W/m² 12,9 km/h (3 Bft) 97,56 %
29.04.2026 04:00 9,1 °C 8,3 °C 5,0 °C 61 % 1024,8 hPa 0,0 l/m² 0 min 0 W/m² 19,3 km/h (3 Bft) 95,74 %
29.04.2026 04:02 9,1 °C 7,8 °C 5,0 °C 61 % 1024,8 hPa 0,0 l/m² 0 min 0 W/m² 16,1 km/h (3 Bft) 95,74 %
29.04.2026 04:04 9,1 °C 7,8 °C 5,0 °C 62 % 1024,7 hPa 0,0 l/m² 0 min 0 W/m² 12,9 km/h (3 Bft) 97,14 %
29.04.2026 04:06 9,1 °C 7,8 °C 5,0 °C 62 % 1024,7 hPa 0,0 l/m² 0 min 0 W/m² 9,7 km/h (2 Bft) 98,36 %
29.04.2026 04:08 9,1 °C 7,8 °C 4,4 °C 62 % 1024,7 hPa 0,0 l/m² 0 min 0 W/m² 12,9 km/h (3 Bft) 98,00 %
29.04.2026 04:10 9,0 °C 7,8 °C 4,4 °C 62 % 1024,7 hPa 0,0 l/m² 0 min 0 W/m² 9,7 km/h (2 Bft) 95,74 %
29.04.2026 04:12 9,0 °C 7,8 °C 4,4 °C 62 % 1024,7 hPa 0,0 l/m² 0 min 0 W/m² 9,7 km/h (2 Bft) 95,74 %
29.04.2026 04:14 8,9 °C 7,8 °C 4,4 °C 62 % 1024,7 hPa 0,0 l/m² 0 min 0 W/m² 12,9 km/h (3 Bft) 97,87 %
29.04.2026 04:16 8,9 °C 7,8 °C 4,4 °C 62 % 1024,7 hPa 0,0 l/m² 0 min 0 W/m² 16,1 km/h (3 Bft) 100,00 %
29.04.2026 04:18 8,9 °C 7,8 °C 4,4 °C 62 % 1024,7 hPa 0,0 l/m² 0 min 0 W/m² 6,4 km/h (2 Bft) 100,00 %
29.04.2026 04:20 8,8 °C 7,8 °C 4,4 °C 63 % 1024,6 hPa 0,0 l/m² 0 min 0 W/m² 9,7 km/h (2 Bft) 100,00 %
29.04.2026 04:22 8,8 °C 7,8 °C 4,4 °C 63 % 1024,6 hPa 0,0 l/m² 0 min 0 W/m² 9,7 km/h (2 Bft) 97,96 %
29.04.2026 04:24 8,8 °C 7,8 °C 4,4 °C 63 % 1024,7 hPa 0,0 l/m² 0 min 0 W/m² 9,7 km/h (2 Bft) 100,00 %
29.04.2026 04:26 8,8 °C 7,8 °C 4,4 °C 63 % 1024,7 hPa 0,0 l/m² 0 min 0 W/m² 12,9 km/h (3 Bft) 96,00 %
29.04.2026 04:28 8,8 °C 7,8 °C 4,4 °C 63 % 1024,6 hPa 0,0 l/m² 0 min 0 W/m² 9,7 km/h (2 Bft) 97,87 %
29.04.2026 04:30 8,7 °C 7,8 °C 4,4 °C 63 % 1024,6 hPa 0,0 l/m² 0 min 0 W/m² 12,9 km/h (3 Bft) 96,00 %
29.04.2026 04:32 8,7 °C 7,8 °C 4,4 °C 63 % 1024,7 hPa 0,0 l/m² 0 min 0 W/m² 16,1 km/h (3 Bft) 96,00 %
29.04.2026 04:34 8,7 °C 7,8 °C 4,4 °C 63 % 1024,7 hPa 0,0 l/m² 0 min 0 W/m² 9,7 km/h (2 Bft) 97,83 %
29.04.2026 04:36 8,7 °C 7,8 °C 4,4 °C 64 % 1024,7 hPa 0,0 l/m² 0 min 0 W/m² 9,7 km/h (2 Bft) 92,59 %
29.04.2026 04:38 8,6 °C 7,8 °C 4,4 °C 64 % 1024,7 hPa 0,0 l/m² 0 min 0 W/m² 9,7 km/h (2 Bft) 96,88 %
29.04.2026 04:40 8,6 °C 7,8 °C 4,4 °C 63 % 1024,6 hPa 0,0 l/m² 0 min 0 W/m² 12,9 km/h (3 Bft) 93,62 %
29.04.2026 04:42 8,6 °C 7,8 °C 4,4 °C 63 % 1024,7 hPa 0,0 l/m² 0 min 0 W/m² 9,7 km/h (2 Bft) 97,87 %
29.04.2026 04:44 8,6 °C 7,2 °C 4,4 °C 64 % 1024,6 hPa 0,0 l/m² 0 min 0 W/m² 9,7 km/h (2 Bft) 96,00 %
29.04.2026 04:46 8,6 °C 7,8 °C 4,4 °C 64 % 1024,6 hPa 0,0 l/m² 0 min 0 W/m² 12,9 km/h (3 Bft) 97,87 %
29.04.2026 04:48 8,5 °C 7,2 °C 4,4 °C 64 % 1024,6 hPa 0,0 l/m² 0 min 0 W/m² 9,7 km/h (2 Bft) 97,87 %
29.04.2026 04:50 8,5 °C 7,2 °C 4,4 °C 64 % 1024,7 hPa 0,0 l/m² 0 min 0 W/m² 12,9 km/h (3 Bft) 97,83 %
29.04.2026 04:52 8,5 °C 7,2 °C 4,4 °C 64 % 1024,7 hPa 0,0 l/m² 0 min 0 W/m² 9,7 km/h (2 Bft) 97,87 %
29.04.2026 04:54 8,4 °C 7,2 °C 4,4 °C 64 % 1024,7 hPa 0,0 l/m² 0 min 0 W/m² 9,7 km/h (2 Bft) 97,87 %
29.04.2026 04:56 8,4 °C 7,2 °C 4,4 °C 64 % 1024,6 hPa 0,0 l/m² 0 min 0 W/m² 9,7 km/h (2 Bft) 97,37 %
29.04.2026 04:58 8,4 °C 7,2 °C 4,4 °C 64 % 1024,6 hPa 0,0 l/m² 0 min 0 W/m² 12,9 km/h (3 Bft) 98,00 %
29.04.2026 05:00 8,4 °C 7,2 °C 4,4 °C 64 % 1024,6 hPa 0,0 l/m² 0 min 0 W/m² 9,7 km/h (2 Bft) 97,87 %
29.04.2026 05:02 8,4 °C 7,2 °C 3,9 °C 65 % 1024,6 hPa 0,0 l/m² 0 min 0 W/m² 6,4 km/h (2 Bft) 95,74 %
29.04.2026 05:04 8,4 °C 7,2 °C 3,9 °C 65 % 1024,7 hPa 0,0 l/m² 0 min 0 W/m² 9,7 km/h (2 Bft) 93,62 %
29.04.2026 05:06 8,3 °C 7,2 °C 3,9 °C 65 % 1024,6 hPa 0,0 l/m² 0 min 0 W/m² 9,7 km/h (2 Bft) 97,96 %
29.04.2026 05:08 8,3 °C 7,2 °C 3,9 °C 65 % 1024,7 hPa 0,0 l/m² 0 min 0 W/m² 9,7 km/h (2 Bft) 95,74 %
29.04.2026 05:10 8,3 °C 7,2 °C 3,9 °C 65 % 1024,7 hPa 0,0 l/m² 0 min 0 W/m² 9,7 km/h (2 Bft) 95,74 %
29.04.2026 05:12 8,3 °C 7,2 °C 3,9 °C 65 % 1024,7 hPa 0,0 l/m² 0 min 0 W/m² 9,7 km/h (2 Bft) 96,00 %
29.04.2026 05:14 8,2 °C 7,2 °C 3,9 °C 65 % 1024,7 hPa 0,0 l/m² 0 min 0 W/m² 12,9 km/h (3 Bft) 95,74 %
29.04.2026 05:16 8,2 °C 7,2 °C 3,9 °C 65 % 1024,7 hPa 0,0 l/m² 0 min 0 W/m² 6,4 km/h (2 Bft) 97,87 %
29.04.2026 05:18 8,2 °C 7,2 °C 3,9 °C 65 % 1024,7 hPa 0,0 l/m² 0 min 0 W/m² 9,7 km/h (2 Bft) 97,37 %
29.04.2026 05:20 8,1 °C 7,2 °C 3,9 °C 65 % 1024,7 hPa 0,0 l/m² 0 min 0 W/m² 9,7 km/h (2 Bft) 95,74 %
29.04.2026 05:22 8,1 °C 7,2 °C 3,9 °C 65 % 1024,8 hPa 0,0 l/m² 0 min 0 W/m² 12,9 km/h (3 Bft) 98,00 %
29.04.2026 05:24 8,1 °C 7,2 °C 3,9 °C 66 % 1024,8 hPa 0,0 l/m² 0 min 0 W/m² 9,7 km/h (2 Bft) 98,08 %
29.04.2026 05:26 8,1 °C 7,2 °C 3,9 °C 66 % 1024,7 hPa 0,0 l/m² 0 min 0 W/m² 6,4 km/h (2 Bft) 95,74 %
29.04.2026 05:28 8,1 °C 6,7 °C 3,9 °C 66 % 1024,8 hPa 0,0 l/m² 0 min 0 W/m² 9,7 km/h (2 Bft) 97,37 %
29.04.2026 05:30 8,0 °C 6,7 °C 3,9 °C 66 % 1024,8 hPa 0,0 l/m² 0 min 0 W/m² 9,7 km/h (2 Bft) 95,74 %
29.04.2026 05:32 7,9 °C 6,7 °C 3,3 °C 66 % 1024,9 hPa 0,0 l/m² 0 min 0 W/m² 3,2 km/h (1 Bft) 97,87 %
29.04.2026 05:34 7,9 °C 6,7 °C 3,3 °C 67 % 1024,9 hPa 0,0 l/m² 0 min 0 W/m² 6,4 km/h (2 Bft) 97,87 %
29.04.2026 05:36 7,9 °C 6,7 °C 3,3 °C 67 % 1024,9 hPa 0,0 l/m² 0 min 0 W/m² 3,2 km/h (1 Bft) 93,62 %
29.04.2026 05:38 7,8 °C 6,7 °C 3,3 °C 67 % 1024,9 hPa 0,0 l/m² 0 min 0 W/m² 6,4 km/h (2 Bft) 98,11 %
29.04.2026 05:40 7,8 °C 6,7 °C 3,3 °C 67 % 1024,9 hPa 0,0 l/m² 0 min 0 W/m² 6,4 km/h (2 Bft) 97,96 %
29.04.2026 05:42 7,8 °C 6,7 °C 3,3 °C 67 % 1024,9 hPa 0,0 l/m² 0 min 0 W/m² 3,2 km/h (1 Bft) 100,00 %
29.04.2026 05:44 7,7 °C 6,7 °C 3,3 °C 67 % 1024,9 hPa 0,0 l/m² 0 min 0 W/m² 6,4 km/h (2 Bft) 97,87 %
29.04.2026 05:46 7,7 °C 6,1 °C 3,3 °C 67 % 1024,9 hPa 0,0 l/m² 0 min 0 W/m² 3,2 km/h (1 Bft) 100,00 %
29.04.2026 05:48 7,7 °C 6,1 °C 3,3 °C 67 % 1024,9 hPa 0,0 l/m² 0 min 0 W/m² 6,4 km/h (2 Bft) 97,87 %
29.04.2026 05:50 7,6 °C 6,1 °C 3,3 °C 67 % 1024,8 hPa 0,0 l/m² 0 min 0 W/m² 3,2 km/h (1 Bft) 100,00 %
29.04.2026 05:52 7,6 °C 6,1 °C 3,3 °C 67 % 1024,9 hPa 0,0 l/m² 0 min 0 W/m² 6,4 km/h (2 Bft) 100,00 %
29.04.2026 05:54 7,6 °C 6,1 °C 3,3 °C 67 % 1024,9 hPa 0,0 l/m² 0 min 0 W/m² 6,4 km/h (2 Bft) 95,65 %
29.04.2026 05:56 7,5 °C 6,1 °C 3,3 °C 68 % 1024,9 hPa 0,0 l/m² 0 min 0 W/m² 6,4 km/h (2 Bft) 97,87 %
29.04.2026 05:58 7,5 °C 6,1 °C 3,3 °C 68 % 1024,9 hPa 0,0 l/m² 0 min 0 W/m² 3,2 km/h (1 Bft) 100,00 %
29.04.2026 06:00 7,4 °C 6,1 °C 3,3 °C 68 % 1024,9 hPa 0,0 l/m² 0 min 0 W/m² 6,4 km/h (2 Bft) 96,55 %
29.04.2026 06:02 7,4 °C 6,1 °C 3,3 °C 68 % 1024,8 hPa 0,0 l/m² 0 min 0 W/m² 6,4 km/h (2 Bft) 97,87 %
29.04.2026 06:04 7,4 °C 6,1 °C 3,3 °C 68 % 1024,8 hPa 0,0 l/m² 0 min 0 W/m² 6,4 km/h (2 Bft) 97,87 %
29.04.2026 06:08 7,3 °C 6,1 °C 3,3 °C 68 % 1024,9 hPa 0,0 l/m² 0 min 0 W/m² 9,7 km/h (2 Bft) 97,59 %
29.04.2026 06:10 7,3 °C 6,1 °C 3,3 °C 69 % 1024,9 hPa 0,0 l/m² 0 min 0 W/m² 6,4 km/h (2 Bft) 97,87 %
29.04.2026 06:12 7,3 °C 6,1 °C 3,3 °C 68 % 1024,9 hPa 0,0 l/m² 0 min 0 W/m² 6,4 km/h (2 Bft) 97,87 %
29.04.2026 06:14 7,3 °C 6,1 °C 3,3 °C 69 % 1024,9 hPa 0,0 l/m² 0 min 0 W/m² 6,4 km/h (2 Bft) 97,87 %
29.04.2026 06:16 7,2 °C 6,1 °C 3,3 °C 69 % 1024,8 hPa 0,0 l/m² 0 min 5 W/m² 9,7 km/h (2 Bft) 95,65 %
29.04.2026 06:18 7,2 °C 6,1 °C 3,3 °C 69 % 1024,8 hPa 0,0 l/m² 0 min 5 W/m² 6,4 km/h (2 Bft) 98,00 %
29.04.2026 06:20 7,2 °C 6,1 °C 2,8 °C 69 % 1024,8 hPa 0,0 l/m² 0 min 5 W/m² 9,7 km/h (2 Bft) 98,00 %
29.04.2026 06:22 7,2 °C 6,1 °C 3,3 °C 69 % 1024,9 hPa 0,0 l/m² 0 min 6 W/m² 6,4 km/h (2 Bft) 97,87 %
29.04.2026 06:24 7,2 °C 6,1 °C 2,8 °C 69 % 1024,9 hPa 0,0 l/m² 0 min 7 W/m² 6,4 km/h (2 Bft) 97,87 %
29.04.2026 06:26 7,1 °C 6,1 °C 2,8 °C 69 % 1024,9 hPa 0,0 l/m² 0 min 7 W/m² 6,4 km/h (2 Bft) 97,87 %
29.04.2026 06:28 7,1 °C 6,1 °C 2,8 °C 69 % 1024,9 hPa 0,0 l/m² 0 min 7 W/m² 9,7 km/h (2 Bft) 97,83 %
29.04.2026 06:30 7,1 °C 6,1 °C 2,8 °C 69 % 1024,9 hPa 0,0 l/m² 0 min 9 W/m² 6,4 km/h (2 Bft) 100,00 %
29.04.2026 06:32 7,1 °C 6,1 °C 2,8 °C 69 % 1024,9 hPa 0,0 l/m² 0 min 9 W/m² 9,7 km/h (2 Bft) 97,87 %
29.04.2026 06:34 7,1 °C 6,1 °C 2,8 °C 70 % 1025,0 hPa 0,0 l/m² 0 min 9 W/m² 6,4 km/h (2 Bft) 97,56 %
29.04.2026 06:36 7,1 °C 6,1 °C 2,8 °C 69 % 1024,9 hPa 0,0 l/m² 0 min 10 W/m² 6,4 km/h (2 Bft) 97,87 %
29.04.2026 06:38 7,1 °C 6,1 °C 2,8 °C 69 % 1025,0 hPa 0,0 l/m² 0 min 11 W/m² 6,4 km/h (2 Bft) 100,00 %
29.04.2026 06:40 7,0 °C 6,1 °C 2,8 °C 69 % 1025,0 hPa 0,0 l/m² 0 min 11 W/m² 6,4 km/h (2 Bft) 100,00 %
29.04.2026 06:42 7,0 °C 6,1 °C 2,8 °C 70 % 1025,0 hPa 0,0 l/m² 0 min 11 W/m² 9,7 km/h (2 Bft) 100,00 %
29.04.2026 06:44 7,0 °C 6,1 °C 2,8 °C 70 % 1025,1 hPa 0,0 l/m² 0 min 12 W/m² 6,4 km/h (2 Bft) 97,14 %
29.04.2026 06:46 7,0 °C 6,1 °C 2,8 °C 70 % 1025,0 hPa 0,0 l/m² 0 min 12 W/m² 6,4 km/h (2 Bft) 100,00 %
29.04.2026 06:48 7,0 °C 6,1 °C 2,8 °C 70 % 1025,0 hPa 0,0 l/m² 0 min 12 W/m² 6,4 km/h (2 Bft) 97,87 %
29.04.2026 06:50 6,9 °C 6,1 °C 2,8 °C 70 % 1025,0 hPa 0,0 l/m² 0 min 14 W/m² 3,2 km/h (1 Bft) 97,87 %
29.04.2026 06:52 6,9 °C 6,1 °C 2,8 °C 71 % 1025,0 hPa 0,0 l/m² 0 min 14 W/m² 9,7 km/h (2 Bft) 97,87 %
29.04.2026 06:54 6,9 °C 6,1 °C 2,8 °C 71 % 1025,0 hPa 0,0 l/m² 0 min 14 W/m² 6,4 km/h (2 Bft) 98,00 %
29.04.2026 06:56 6,9 °C 6,1 °C 2,8 °C 71 % 1025,0 hPa 0,0 l/m² 0 min 14 W/m² 6,4 km/h (2 Bft) 95,74 %
29.04.2026 06:58 6,9 °C 6,1 °C 2,8 °C 71 % 1025,0 hPa 0,0 l/m² 0 min 15 W/m² 3,2 km/h (1 Bft) 96,00 %
29.04.2026 07:00 6,9 °C 6,1 °C 2,8 °C 71 % 1025,1 hPa 0,0 l/m² 0 min 16 W/m² 12,9 km/h (3 Bft) 100,00 %
29.04.2026 07:02 6,9 °C 6,1 °C 2,8 °C 71 % 1025,1 hPa 0,0 l/m² 0 min 16 W/m² 6,4 km/h (2 Bft) 93,10 %
29.04.2026 07:04 6,9 °C 6,1 °C 2,8 °C 71 % 1025,1 hPa 0,0 l/m² 0 min 16 W/m² 6,4 km/h (2 Bft) 97,87 %
29.04.2026 07:06 6,9 °C 6,1 °C 2,8 °C 71 % 1025,2 hPa 0,0 l/m² 0 min 18 W/m² 9,7 km/h (2 Bft) 97,87 %
29.04.2026 07:08 6,9 °C 6,1 °C 2,8 °C 71 % 1025,2 hPa 0,0 l/m² 0 min 18 W/m² 9,7 km/h (2 Bft) 97,87 %
29.04.2026 07:10 7,0 °C 6,1 °C 3,3 °C 71 % 1025,2 hPa 0,0 l/m² 0 min 18 W/m² 6,4 km/h (2 Bft) 97,14 %
29.04.2026 07:12 7,0 °C 6,1 °C 3,3 °C 71 % 1025,2 hPa 0,0 l/m² 0 min 18 W/m² 6,4 km/h (2 Bft) 95,74 %
29.04.2026 07:14 7,0 °C 6,1 °C 3,3 °C 71 % 1025,2 hPa 0,0 l/m² 0 min 19 W/m² 6,4 km/h (2 Bft) 96,49 %
29.04.2026 07:16 7,0 °C 6,1 °C 3,3 °C 71 % 1025,2 hPa 0,0 l/m² 0 min 19 W/m² 9,7 km/h (2 Bft) 97,83 %
29.04.2026 07:18 7,1 °C 6,7 °C 3,3 °C 71 % 1025,2 hPa 0,0 l/m² 0 min 19 W/m² 9,7 km/h (2 Bft) 100,00 %
29.04.2026 07:20 7,1 °C 6,7 °C 3,3 °C 71 % 1025,2 hPa 0,0 l/m² 0 min 19 W/m² 6,4 km/h (2 Bft) 100,00 %
29.04.2026 07:22 7,1 °C 6,7 °C 3,3 °C 71 % 1025,1 hPa 0,0 l/m² 0 min 19 W/m² 3,2 km/h (1 Bft) 98,36 %
29.04.2026 07:24 7,1 °C 6,7 °C 3,3 °C 71 % 1025,2 hPa 0,0 l/m² 0 min 20 W/m² 6,4 km/h (2 Bft) 100,00 %
29.04.2026 07:26 7,1 °C 6,7 °C 3,3 °C 71 % 1025,2 hPa 0,0 l/m² 0 min 21 W/m² 9,7 km/h (2 Bft) 100,00 %
29.04.2026 07:28 7,1 °C 6,7 °C 3,3 °C 71 % 1025,3 hPa 0,0 l/m² 0 min 21 W/m² 6,4 km/h (2 Bft) 100,00 %
29.04.2026 07:30 7,2 °C 6,7 °C 3,3 °C 71 % 1025,3 hPa 0,0 l/m² 0 min 21 W/m² 6,4 km/h (2 Bft) 95,74 %
29.04.2026 07:32 7,2 °C 6,7 °C 3,3 °C 71 % 1025,3 hPa 0,0 l/m² 0 min 21 W/m² 6,4 km/h (2 Bft) 100,00 %
29.04.2026 07:34 7,2 °C 6,7 °C 3,3 °C 71 % 1025,3 hPa 0,0 l/m² 0 min 22 W/m² 12,9 km/h (3 Bft) 97,83 %
29.04.2026 07:36 7,2 °C 6,7 °C 3,3 °C 71 % 1025,4 hPa 0,0 l/m² 0 min 23 W/m² 6,4 km/h (2 Bft) 95,83 %
29.04.2026 07:38 7,3 °C 6,7 °C 3,3 °C 71 % 1025,4 hPa 0,0 l/m² 0 min 23 W/m² 6,4 km/h (2 Bft) 95,74 %
29.04.2026 07:40 7,3 °C 6,7 °C 3,3 °C 71 % 1025,4 hPa 0,0 l/m² 0 min 23 W/m² 6,4 km/h (2 Bft) 95,74 %
29.04.2026 07:42 7,3 °C 6,7 °C 3,3 °C 71 % 1025,4 hPa 0,0 l/m² 0 min 23 W/m² 6,4 km/h (2 Bft) 95,74 %
29.04.2026 07:44 7,4 °C 7,2 °C 3,3 °C 71 % 1025,4 hPa 0,0 l/m² 0 min 25 W/m² 6,4 km/h (2 Bft) 97,87 %
29.04.2026 07:46 7,4 °C 7,2 °C 3,3 °C 70 % 1025,4 hPa 0,0 l/m² 0 min 25 W/m² 3,2 km/h (1 Bft) 95,74 %
29.04.2026 07:48 7,4 °C 7,2 °C 3,9 °C 71 % 1025,5 hPa 0,0 l/m² 0 min 25 W/m² 3,2 km/h (1 Bft) 57,45 %
29.04.2026 07:50 7,5 °C 7,2 °C 3,9 °C 71 % 1025,4 hPa 0,0 l/m² 0 min 25 W/m² 3,2 km/h (1 Bft) 94,44 %
29.04.2026 07:52 7,6 °C 7,2 °C 3,9 °C 71 % 1025,5 hPa 0,0 l/m² 0 min 25 W/m² 9,7 km/h (2 Bft) 95,74 %
29.04.2026 07:54 7,6 °C 7,2 °C 3,9 °C 71 % 1025,5 hPa 0,0 l/m² 0 min 26 W/m² 3,2 km/h (1 Bft) 97,87 %
29.04.2026 07:56 7,6 °C 7,2 °C 3,9 °C 70 % 1025,5 hPa 0,0 l/m² 0 min 26 W/m² 6,4 km/h (2 Bft) 95,74 %
29.04.2026 07:58 7,6 °C 7,2 °C 3,9 °C 70 % 1025,5 hPa 0,0 l/m² 0 min 26 W/m² 6,4 km/h (2 Bft) 96,00 %
29.04.2026 08:00 7,7 °C 7,2 °C 3,9 °C 70 % 1025,5 hPa 0,0 l/m² 0 min 26 W/m² 6,4 km/h (2 Bft) 97,37 %
29.04.2026 08:02 7,7 °C 7,2 °C 3,9 °C 70 % 1025,6 hPa 0,0 l/m² 0 min 27 W/m² 6,4 km/h (2 Bft) 96,00 %
29.04.2026 08:04 7,8 °C 7,2 °C 3,9 °C 70 % 1025,6 hPa 0,0 l/m² 0 min 28 W/m² 3,2 km/h (1 Bft) 93,62 %
29.04.2026 08:06 7,8 °C 7,2 °C 3,9 °C 70 % 1025,7 hPa 0,0 l/m² 0 min 28 W/m² 12,9 km/h (3 Bft) 95,65 %
29.04.2026 08:08 7,8 °C 7,8 °C 3,9 °C 70 % 1025,7 hPa 0,0 l/m² 0 min 28 W/m² 9,7 km/h (2 Bft) 95,74 %
29.04.2026 08:10 7,9 °C 7,8 °C 4,4 °C 70 % 1025,7 hPa 0,0 l/m² 0 min 28 W/m² 9,7 km/h (2 Bft) 95,74 %
29.04.2026 08:12 7,9 °C 7,8 °C 4,4 °C 70 % 1025,7 hPa 0,0 l/m² 0 min 30 W/m² 6,4 km/h (2 Bft) 94,00 %
29.04.2026 08:14 8,0 °C 7,8 °C 4,4 °C 69 % 1025,7 hPa 0,0 l/m² 0 min 30 W/m² 9,7 km/h (2 Bft) 94,00 %
29.04.2026 08:16 8,1 °C 7,8 °C 4,4 °C 69 % 1025,7 hPa 0,0 l/m² 0 min 30 W/m² 9,7 km/h (2 Bft) 97,87 %
29.04.2026 08:18 8,2 °C 7,8 °C 4,4 °C 69 % 1025,8 hPa 0,0 l/m² 0 min 30 W/m² 19,3 km/h (3 Bft) 95,74 %
29.04.2026 08:20 8,2 °C 8,3 °C 4,4 °C 69 % 1025,7 hPa 0,0 l/m² 0 min 34 W/m² 6,4 km/h (2 Bft) 93,48 %
29.04.2026 08:22 8,3 °C 8,3 °C 4,4 °C 68 % 1025,7 hPa 0,0 l/m² 0 min 62 W/m² 12,9 km/h (3 Bft) 94,44 %
29.04.2026 08:24 8,4 °C 8,3 °C 4,4 °C 68 % 1025,8 hPa 0,0 l/m² 0 min 37 W/m² 22,5 km/h (4 Bft) 95,92 %
29.04.2026 08:26 8,4 °C 8,3 °C 4,4 °C 67 % 1025,8 hPa 0,0 l/m² 0 min 62 W/m² 9,7 km/h (2 Bft) 96,00 %
29.04.2026 08:28 8,6 °C 8,3 °C 5,0 °C 67 % 1025,7 hPa 0,0 l/m² 2 min 168 W/m² 16,1 km/h (3 Bft) 95,74 %
29.04.2026 08:30 8,7 °C 8,3 °C 5,0 °C 67 % 1025,7 hPa 0,0 l/m² 0 min 52 W/m² 6,4 km/h (2 Bft) 95,74 %
29.04.2026 08:32 8,7 °C 8,3 °C 5,0 °C 66 % 1025,8 hPa 0,0 l/m² 0 min 33 W/m² 6,4 km/h (2 Bft) 98,11 %
29.04.2026 08:34 8,8 °C 8,9 °C 5,0 °C 67 % 1025,8 hPa 0,0 l/m² 0 min 33 W/m² 6,4 km/h (2 Bft) 97,87 %
29.04.2026 08:36 8,9 °C 8,9 °C 5,0 °C 66 % 1025,8 hPa 0,0 l/m² 0 min 34 W/m² 16,1 km/h (3 Bft) 95,74 %
29.04.2026 08:38 8,9 °C 8,9 °C 5,0 °C 66 % 1025,8 hPa 0,0 l/m² 0 min 126 W/m² 6,4 km/h (2 Bft) 94,74 %
29.04.2026 08:40 9,1 °C 8,9 °C 5,0 °C 66 % 1025,8 hPa 0,0 l/m² 2 min 275 W/m² 6,4 km/h (2 Bft) 95,92 %
29.04.2026 08:42 9,2 °C 9,4 °C 5,0 °C 66 % 1025,8 hPa 0,0 l/m² 2 min 359 W/m² 12,9 km/h (3 Bft) 95,74 %
29.04.2026 08:44 9,2 °C 11,7 °C 5,6 °C 65 % 1025,8 hPa 0,0 l/m² 2 min 366 W/m² 16,1 km/h (3 Bft) 94,00 %
29.04.2026 08:46 9,4 °C 13,3 °C 5,6 °C 65 % 1025,9 hPa 0,0 l/m² 2 min 373 W/m² 9,7 km/h (2 Bft) 95,74 %
29.04.2026 08:48 9,5 °C 15,6 °C 5,6 °C 64 % 1025,9 hPa 0,0 l/m² 2 min 379 W/m² 6,4 km/h (2 Bft) 95,74 %
29.04.2026 08:50 9,7 °C 16,1 °C 5,6 °C 65 % 1025,9 hPa 0,0 l/m² 2 min 382 W/m² 9,7 km/h (2 Bft) 97,14 %
29.04.2026 08:52 9,9 °C 17,8 °C 5,6 °C 64 % 1026,0 hPa 0,0 l/m² 2 min 389 W/m² 12,9 km/h (3 Bft) 98,28 %
29.04.2026 08:54 10,1 °C 18,3 °C 5,6 °C 64 % 1025,9 hPa 0,0 l/m² 2 min 395 W/m² 9,7 km/h (2 Bft) 97,83 %
29.04.2026 08:56 10,3 °C 18,9 °C 6,1 °C 63 % 1026,0 hPa 0,0 l/m² 2 min 402 W/m² 9,7 km/h (2 Bft) 96,00 %
29.04.2026 08:58 10,5 °C 18,9 °C 6,1 °C 63 % 1026,0 hPa 0,0 l/m² 2 min 406 W/m² 12,9 km/h (3 Bft) 97,37 %
29.04.2026 09:00 10,8 °C 18,9 °C 6,7 °C 61 % 1026,0 hPa 0,0 l/m² 2 min 413 W/m² 12,9 km/h (3 Bft) 95,74 %
29.04.2026 09:02 11,1 °C 19,4 °C 7,2 °C 61 % 1026,0 hPa 0,0 l/m² 2 min 419 W/m² 9,7 km/h (2 Bft) 97,87 %
29.04.2026 09:04 11,4 °C 20,0 °C 7,8 °C 60 % 1026,0 hPa 0,0 l/m² 2 min 425 W/m² 12,9 km/h (3 Bft) 98,00 %
29.04.2026 09:06 11,6 °C 20,0 °C 8,3 °C 59 % 1026,0 hPa 0,0 l/m² 2 min 430 W/m² 16,1 km/h (3 Bft) 98,00 %
29.04.2026 09:08 11,8 °C 20,6 °C 8,9 °C 58 % 1026,0 hPa 0,0 l/m² 2 min 437 W/m² 9,7 km/h (2 Bft) 94,00 %
29.04.2026 09:10 12,0 °C 21,1 °C 9,4 °C 58 % 1026,0 hPa 0,0 l/m² 2 min 441 W/m² 9,7 km/h (2 Bft) 100,00 %
29.04.2026 09:12 12,2 °C 21,1 °C 10,0 °C 58 % 1026,0 hPa 0,0 l/m² 2 min 447 W/m² 9,7 km/h (2 Bft) 97,96 %
29.04.2026 09:14 12,4 °C 21,1 °C 10,0 °C 57 % 1026,1 hPa 0,0 l/m² 2 min 453 W/m² 16,1 km/h (3 Bft) 97,87 %
29.04.2026 09:16 12,5 °C 21,7 °C 10,6 °C 56 % 1026,1 hPa 0,0 l/m² 2 min 459 W/m² 9,7 km/h (2 Bft) 97,87 %
29.04.2026 09:18 12,7 °C 21,1 °C 10,6 °C 56 % 1026,1 hPa 0,0 l/m² 2 min 464 W/m² 9,7 km/h (2 Bft) 100,00 %
29.04.2026 09:20 12,8 °C 21,7 °C 10,6 °C 55 % 1026,1 hPa 0,0 l/m² 2 min 471 W/m² 9,7 km/h (2 Bft) 100,00 %
29.04.2026 09:22 12,9 °C 22,2 °C 11,1 °C 56 % 1026,1 hPa 0,0 l/m² 2 min 476 W/m² 12,9 km/h (3 Bft) 100,00 %
29.04.2026 09:24 13,1 °C 21,7 °C 11,1 °C 55 % 1026,1 hPa 0,0 l/m² 2 min 481 W/m² 12,9 km/h (3 Bft) 100,00 %
29.04.2026 09:26 13,2 °C 21,7 °C 11,1 °C 55 % 1026,1 hPa 0,0 l/m² 2 min 486 W/m² 9,7 km/h (2 Bft) 97,83 %
29.04.2026 09:28 13,3 °C 22,2 °C 11,1 °C 55 % 1026,1 hPa 0,0 l/m² 2 min 491 W/m² 12,9 km/h (3 Bft) 98,00 %
29.04.2026 09:30 13,3 °C 21,7 °C 11,1 °C 54 % 1026,0 hPa 0,0 l/m² 2 min 498 W/m² 16,1 km/h (3 Bft) 100,00 %
29.04.2026 09:32 13,4 °C 21,7 °C 11,1 °C 53 % 1026,1 hPa 0,0 l/m² 2 min 503 W/m² 16,1 km/h (3 Bft) 100,00 %
29.04.2026 09:34 13,4 °C 21,1 °C 11,1 °C 53 % 1026,1 hPa 0,0 l/m² 2 min 509 W/m² 12,9 km/h (3 Bft) 100,00 %
29.04.2026 09:36 13,4 °C 21,7 °C 11,1 °C 53 % 1026,0 hPa 0,0 l/m² 2 min 514 W/m² 9,7 km/h (2 Bft) 100,00 %
29.04.2026 09:38 13,4 °C 21,1 °C 11,1 °C 53 % 1026,0 hPa 0,0 l/m² 2 min 519 W/m² 12,9 km/h (3 Bft) 98,00 %
29.04.2026 09:40 13,6 °C 21,1 °C 11,1 °C 53 % 1026,1 hPa 0,0 l/m² 2 min 524 W/m² 12,9 km/h (3 Bft) 100,00 %
29.04.2026 09:42 13,6 °C 20,6 °C 11,1 °C 52 % 1026,1 hPa 0,0 l/m² 2 min 530 W/m² 19,3 km/h (3 Bft) 100,00 %
29.04.2026 09:44 13,6 °C 20,6 °C 11,1 °C 52 % 1026,2 hPa 0,0 l/m² 2 min 535 W/m² 9,7 km/h (2 Bft) 100,00 %
29.04.2026 09:46 13,6 °C 21,1 °C 10,6 °C 53 % 1026,1 hPa 0,0 l/m² 2 min 541 W/m² 16,1 km/h (3 Bft) 100,00 %
29.04.2026 09:48 13,6 °C 21,1 °C 10,0 °C 52 % 1026,1 hPa 0,0 l/m² 2 min 547 W/m² 16,1 km/h (3 Bft) 100,00 %
29.04.2026 09:50 13,7 °C 20,6 °C 10,0 °C 52 % 1026,2 hPa 0,0 l/m² 2 min 552 W/m² 19,3 km/h (3 Bft) 98,00 %
29.04.2026 09:52 13,7 °C 21,1 °C 9,4 °C 53 % 1026,2 hPa 0,0 l/m² 2 min 558 W/m² 9,7 km/h (2 Bft) 100,00 %
29.04.2026 09:54 13,8 °C 20,6 °C 9,4 °C 52 % 1026,1 hPa 0,0 l/m² 2 min 563 W/m² 19,3 km/h (3 Bft) 97,87 %
29.04.2026 09:56 13,8 °C 21,1 °C 9,4 °C 52 % 1026,1 hPa 0,0 l/m² 2 min 569 W/m² 9,7 km/h (2 Bft) 100,00 %
29.04.2026 09:58 13,8 °C 20,0 °C 8,9 °C 51 % 1026,1 hPa 0,0 l/m² 2 min 573 W/m² 19,3 km/h (3 Bft) 100,00 %
29.04.2026 10:00 13,8 °C 20,6 °C 8,9 °C 52 % 1026,1 hPa 0,0 l/m² 2 min 578 W/m² 12,9 km/h (3 Bft) 100,00 %
29.04.2026 10:02 13,9 °C 21,1 °C 8,9 °C 52 % 1026,1 hPa 0,0 l/m² 2 min 584 W/m² 9,7 km/h (2 Bft) 100,00 %
29.04.2026 10:04 14,0 °C 20,6 °C 8,9 °C 51 % 1026,1 hPa 0,0 l/m² 2 min 589 W/m² 19,3 km/h (3 Bft) 100,00 %
29.04.2026 10:06 14,1 °C 20,6 °C 8,9 °C 52 % 1026,1 hPa 0,0 l/m² 2 min 593 W/m² 9,7 km/h (2 Bft) 100,00 %
29.04.2026 10:08 14,1 °C 21,1 °C 8,9 °C 51 % 1026,2 hPa 0,0 l/m² 2 min 599 W/m² 16,1 km/h (3 Bft) 100,00 %
29.04.2026 10:10 14,3 °C 21,7 °C 9,4 °C 52 % 1026,1 hPa 0,0 l/m² 2 min 604 W/m² 12,9 km/h (3 Bft) 100,00 %
29.04.2026 10:12 14,3 °C 21,7 °C 9,4 °C 51 % 1026,1 hPa 0,0 l/m² 2 min 609 W/m² 9,7 km/h (2 Bft) 100,00 %
29.04.2026 10:14 14,3 °C 21,1 °C 9,4 °C 50 % 1026,1 hPa 0,0 l/m² 2 min 614 W/m² 16,1 km/h (3 Bft) 100,00 %
29.04.2026 10:16 14,3 °C 20,6 °C 9,4 °C 51 % 1026,1 hPa 0,0 l/m² 2 min 620 W/m² 16,1 km/h (3 Bft) 95,74 %
29.04.2026 10:18 14,3 °C 20,6 °C 9,4 °C 50 % 1026,1 hPa 0,0 l/m² 2 min 624 W/m² 12,9 km/h (3 Bft) 100,00 %
29.04.2026 10:20 14,4 °C 20,0 °C 10,0 °C 51 % 1026,1 hPa 0,0 l/m² 2 min 628 W/m² 12,9 km/h (3 Bft) 100,00 %
29.04.2026 10:22 14,5 °C 18,9 °C 10,0 °C 50 % 1026,1 hPa 0,0 l/m² 2 min 633 W/m² 12,9 km/h (3 Bft) 98,00 %
29.04.2026 10:24 14,6 °C 19,4 °C 10,6 °C 50 % 1026,0 hPa 0,0 l/m² 2 min 637 W/m² 12,9 km/h (3 Bft) 95,74 %
29.04.2026 10:26 14,7 °C 19,4 °C 11,1 °C 50 % 1026,1 hPa 0,0 l/m² 2 min 642 W/m² 9,7 km/h (2 Bft) 97,56 %
29.04.2026 10:28 14,8 °C 19,4 °C 11,7 °C 50 % 1026,1 hPa 0,0 l/m² 2 min 646 W/m² 9,7 km/h (2 Bft) 98,00 %
29.04.2026 10:30 14,8 °C 19,4 °C 12,2 °C 50 % 1026,1 hPa 0,0 l/m² 2 min 651 W/m² 16,1 km/h (3 Bft) 98,00 %
29.04.2026 10:32 14,9 °C 18,9 °C 12,2 °C 50 % 1026,1 hPa 0,0 l/m² 2 min 656 W/m² 16,1 km/h (3 Bft) 95,74 %
29.04.2026 10:34 14,9 °C 18,9 °C 12,2 °C 49 % 1026,1 hPa 0,0 l/m² 2 min 659 W/m² 12,9 km/h (3 Bft) 97,37 %
29.04.2026 10:36 15,0 °C 20,6 °C 12,2 °C 49 % 1026,1 hPa 0,0 l/m² 2 min 664 W/m² 9,7 km/h (2 Bft) 94,29 %
29.04.2026 10:38 15,1 °C 21,1 °C 12,2 °C 49 % 1026,1 hPa 0,0 l/m² 2 min 668 W/m² 12,9 km/h (3 Bft) 93,75 %
29.04.2026 10:40 15,2 °C 21,1 °C 12,2 °C 49 % 1026,1 hPa 0,0 l/m² 2 min 672 W/m² 19,3 km/h (3 Bft) 95,74 %
29.04.2026 10:42 15,2 °C 20,6 °C 11,7 °C 49 % 1026,2 hPa 0,0 l/m² 2 min 676 W/m² 12,9 km/h (3 Bft) 96,00 %
29.04.2026 10:44 15,3 °C 21,1 °C 11,7 °C 48 % 1026,2 hPa 0,0 l/m² 2 min 679 W/m² 12,9 km/h (3 Bft) 94,74 %
29.04.2026 10:46 15,3 °C 20,6 °C 11,7 °C 48 % 1026,2 hPa 0,0 l/m² 2 min 683 W/m² 19,3 km/h (3 Bft) 93,62 %
29.04.2026 10:48 15,4 °C 20,6 °C 11,7 °C 48 % 1026,1 hPa 0,0 l/m² 2 min 688 W/m² 12,9 km/h (3 Bft) 95,74 %
29.04.2026 10:50 15,5 °C 20,0 °C 11,7 °C 49 % 1026,1 hPa 0,0 l/m² 2 min 692 W/m² 12,9 km/h (3 Bft) 95,74 %
29.04.2026 10:52 15,6 °C 19,4 °C 11,7 °C 48 % 1026,1 hPa 0,0 l/m² 2 min 695 W/m² 16,1 km/h (3 Bft) 93,62 %
29.04.2026 10:54 15,7 °C 19,4 °C 11,1 °C 48 % 1026,1 hPa 0,0 l/m² 2 min 700 W/m² 16,1 km/h (3 Bft) 95,65 %
29.04.2026 10:56 15,7 °C 20,6 °C 11,1 °C 47 % 1026,1 hPa 0,0 l/m² 2 min 704 W/m² 19,3 km/h (3 Bft) 95,74 %
29.04.2026 10:58 15,8 °C 21,1 °C 11,1 °C 47 % 1026,1 hPa 0,0 l/m² 2 min 708 W/m² 19,3 km/h (3 Bft) 96,00 %
29.04.2026 11:00 15,7 °C 21,7 °C 11,1 °C 47 % 1026,1 hPa 0,0 l/m² 2 min 712 W/m² 19,3 km/h (3 Bft) 93,62 %
29.04.2026 11:02 15,8 °C 21,7 °C 10,6 °C 47 % 1026,1 hPa 0,0 l/m² 2 min 715 W/m² 12,9 km/h (3 Bft) 93,62 %
29.04.2026 11:04 15,8 °C 21,7 °C 11,1 °C 47 % 1026,1 hPa 0,0 l/m² 2 min 720 W/m² 19,3 km/h (3 Bft) 98,00 %
29.04.2026 11:06 15,8 °C 21,7 °C 11,1 °C 48 % 1026,1 hPa 0,0 l/m² 2 min 723 W/m² 16,1 km/h (3 Bft) 95,74 %
29.04.2026 11:08 15,9 °C 20,6 °C 11,1 °C 47 % 1026,0 hPa 0,0 l/m² 2 min 727 W/m² 16,1 km/h (3 Bft) 91,84 %
29.04.2026 11:10 15,9 °C 20,0 °C 11,1 °C 47 % 1026,0 hPa 0,0 l/m² 2 min 729 W/m² 9,7 km/h (2 Bft) 94,87 %
29.04.2026 11:12 16,1 °C 20,6 °C 11,1 °C 47 % 1026,1 hPa 0,0 l/m² 2 min 734 W/m² 16,1 km/h (3 Bft) 97,83 %
29.04.2026 11:14 16,2 °C 21,1 °C 11,1 °C 46 % 1026,0 hPa 0,0 l/m² 2 min 738 W/m² 12,9 km/h (3 Bft) 97,87 %
29.04.2026 11:16 16,2 °C 22,2 °C 11,1 °C 46 % 1026,0 hPa 0,0 l/m² 2 min 740 W/m² 19,3 km/h (3 Bft) 97,87 %
29.04.2026 11:18 16,3 °C 22,8 °C 11,7 °C 47 % 1026,0 hPa 0,0 l/m² 2 min 746 W/m² 9,7 km/h (2 Bft) 98,00 %
29.04.2026 11:20 16,4 °C 23,3 °C 11,7 °C 46 % 1026,0 hPa 0,0 l/m² 2 min 750 W/m² 16,1 km/h (3 Bft) 100,00 %
29.04.2026 11:22 16,5 °C 23,9 °C 11,7 °C 46 % 1025,9 hPa 0,0 l/m² 2 min 753 W/m² 12,9 km/h (3 Bft) 100,00 %
29.04.2026 11:24 16,6 °C 23,3 °C 12,2 °C 47 % 1026,0 hPa 0,0 l/m² 2 min 757 W/m² 12,9 km/h (3 Bft) 100,00 %
29.04.2026 11:26 16,6 °C 22,2 °C 12,8 °C 45 % 1026,0 hPa 0,0 l/m² 2 min 760 W/m² 16,1 km/h (3 Bft) 100,00 %
29.04.2026 11:28 16,6 °C 21,7 °C 12,8 °C 45 % 1025,9 hPa 0,0 l/m² 2 min 763 W/m² 16,1 km/h (3 Bft) 97,83 %
29.04.2026 11:30 16,7 °C 21,1 °C 12,8 °C 46 % 1025,9 hPa 0,0 l/m² 2 min 767 W/m² 12,9 km/h (3 Bft) 100,00 %
29.04.2026 11:32 16,8 °C 20,6 °C 12,8 °C 46 % 1025,9 hPa 0,0 l/m² 2 min 769 W/m² 12,9 km/h (3 Bft) 100,00 %
29.04.2026 11:34 16,8 °C 20,6 °C 12,8 °C 45 % 1025,9 hPa 0,0 l/m² 2 min 777 W/m² 25,7 km/h (4 Bft) 100,00 %
29.04.2026 11:36 16,8 °C 20,6 °C 12,8 °C 45 % 1025,9 hPa 0,0 l/m² 2 min 778 W/m² 22,5 km/h (4 Bft) 100,00 %
29.04.2026 11:38 16,9 °C 20,6 °C 12,8 °C 45 % 1025,9 hPa 0,0 l/m² 2 min 779 W/m² 19,3 km/h (3 Bft) 100,00 %
29.04.2026 11:40 16,9 °C 20,6 °C 12,8 °C 46 % 1026,0 hPa 0,0 l/m² 2 min 781 W/m² 22,5 km/h (4 Bft) 97,87 %
29.04.2026 11:42 17,0 °C 21,1 °C 12,8 °C 45 % 1026,0 hPa 0,0 l/m² 2 min 785 W/m² 22,5 km/h (4 Bft) 100,00 %
29.04.2026 11:44 17,1 °C 20,6 °C 12,8 °C 45 % 1025,9 hPa 0,0 l/m² 2 min 788 W/m² 19,3 km/h (3 Bft) 100,00 %
29.04.2026 11:46 17,1 °C 20,0 °C 12,8 °C 46 % 1025,9 hPa 0,0 l/m² 2 min 792 W/m² 16,1 km/h (3 Bft) 100,00 %
29.04.2026 11:48 17,1 °C 20,6 °C 12,8 °C 45 % 1025,9 hPa 0,0 l/m² 2 min 794 W/m² 16,1 km/h (3 Bft) 100,00 %
29.04.2026 11:50 17,2 °C 20,6 °C 12,8 °C 46 % 1025,9 hPa 0,0 l/m² 2 min 795 W/m² 16,1 km/h (3 Bft) 100,00 %
29.04.2026 11:52 17,3 °C 21,1 °C 13,3 °C 45 % 1025,9 hPa 0,0 l/m² 2 min 799 W/m² 19,3 km/h (3 Bft) 100,00 %
29.04.2026 11:54 17,3 °C 21,7 °C 13,3 °C 45 % 1025,9 hPa 0,0 l/m² 2 min 803 W/m² 16,1 km/h (3 Bft) 100,00 %
29.04.2026 11:56 17,5 °C 23,9 °C 13,9 °C 45 % 1025,9 hPa 0,0 l/m² 2 min 806 W/m² 12,9 km/h (3 Bft) 97,83 %
29.04.2026 11:58 17,6 °C 25,0 °C 13,9 °C 45 % 1025,9 hPa 0,0 l/m² 2 min 810 W/m² 9,7 km/h (2 Bft) 100,00 %
29.04.2026 12:00 17,6 °C 25,0 °C 13,9 °C 43 % 1025,8 hPa 0,0 l/m² 2 min 812 W/m² 19,3 km/h (3 Bft) 97,37 %
29.04.2026 12:02 17,6 °C 26,1 °C 14,4 °C 44 % 1025,8 hPa 0,0 l/m² 2 min 811 W/m² 16,1 km/h (3 Bft) 100,00 %
29.04.2026 12:04 17,8 °C 27,2 °C 15,0 °C 45 % 1025,8 hPa 0,0 l/m² 2 min 812 W/m² 19,3 km/h (3 Bft) 100,00 %
29.04.2026 12:08 17,9 °C 26,7 °C 16,1 °C 43 % 1025,7 hPa 0,0 l/m² 2 min 817 W/m² 19,3 km/h (3 Bft) 100,00 %
29.04.2026 12:10 17,9 °C 26,1 °C 16,7 °C 43 % 1025,7 hPa 0,0 l/m² 2 min 821 W/m² 19,3 km/h (3 Bft) 100,00 %
29.04.2026 12:12 17,9 °C 26,1 °C 16,7 °C 43 % 1025,7 hPa 0,0 l/m² 2 min 821 W/m² 9,7 km/h (2 Bft) 100,00 %
29.04.2026 12:14 17,9 °C 26,1 °C 16,1 °C 43 % 1025,7 hPa 0,0 l/m² 2 min 821 W/m² 19,3 km/h (3 Bft) 100,00 %
29.04.2026 12:16 17,9 °C 26,1 °C 16,1 °C 44 % 1025,6 hPa 0,0 l/m² 2 min 829 W/m² 19,3 km/h (3 Bft) 100,00 %
29.04.2026 12:18 18,1 °C 27,2 °C 16,7 °C 45 % 1025,6 hPa 0,0 l/m² 2 min 826 W/m² 16,1 km/h (3 Bft) 100,00 %
29.04.2026 12:20 18,3 °C 27,2 °C 17,8 °C 44 % 1025,7 hPa 0,0 l/m² 2 min 832 W/m² 19,3 km/h (3 Bft) 97,87 %
29.04.2026 12:22 18,3 °C 26,7 °C 18,3 °C 43 % 1025,6 hPa 0,0 l/m² 2 min 831 W/m² 22,5 km/h (4 Bft) 100,00 %
29.04.2026 12:24 18,4 °C 27,2 °C 19,4 °C 43 % 1025,6 hPa 0,0 l/m² 2 min 833 W/m² 22,5 km/h (4 Bft) 100,00 %
29.04.2026 12:26 18,5 °C 27,2 °C 20,0 °C 43 % 1025,7 hPa 0,0 l/m² 2 min 836 W/m² 19,3 km/h (3 Bft) 100,00 %
29.04.2026 12:28 18,7 °C 28,3 °C 20,6 °C 44 % 1025,7 hPa 0,0 l/m² 2 min 833 W/m² 12,9 km/h (3 Bft) 100,00 %
29.04.2026 12:30 18,7 °C 28,3 °C 20,0 °C 43 % 1025,7 hPa 0,0 l/m² 2 min 839 W/m² 12,9 km/h (3 Bft) 97,83 %
29.04.2026 12:32 18,8 °C 28,3 °C 20,0 °C 43 % 1025,7 hPa 0,0 l/m² 2 min 842 W/m² 16,1 km/h (3 Bft) 100,00 %
29.04.2026 12:34 18,8 °C 28,3 °C 20,6 °C 43 % 1025,7 hPa 0,0 l/m² 2 min 843 W/m² 19,3 km/h (3 Bft) 100,00 %
29.04.2026 12:36 18,8 °C 28,3 °C 20,6 °C 43 % 1025,7 hPa 0,0 l/m² 2 min 847 W/m² 16,1 km/h (3 Bft) 97,56 %
29.04.2026 12:38 18,9 °C 28,9 °C 21,1 °C 43 % 1025,7 hPa 0,0 l/m² 2 min 849 W/m² 12,9 km/h (3 Bft) 95,74 %
29.04.2026 12:40 19,0 °C 28,9 °C 21,1 °C 43 % 1025,7 hPa 0,0 l/m² 2 min 850 W/m² 25,7 km/h (4 Bft) 100,00 %
29.04.2026 12:42 19,1 °C 29,4 °C 21,1 °C 43 % 1025,6 hPa 0,0 l/m² 2 min 851 W/m² 16,1 km/h (3 Bft) 100,00 %
29.04.2026 12:44 19,1 °C 27,8 °C 20,6 °C 41 % 1025,6 hPa 0,0 l/m² 2 min 848 W/m² 22,5 km/h (4 Bft) 100,00 %
29.04.2026 12:46 19,0 °C 28,3 °C 21,1 °C 42 % 1025,6 hPa 0,0 l/m² 2 min 847 W/m² 16,1 km/h (3 Bft) 97,83 %
29.04.2026 12:48 19,1 °C 29,4 °C 21,7 °C 43 % 1025,6 hPa 0,0 l/m² 2 min 840 W/m² 12,9 km/h (3 Bft) 100,00 %
29.04.2026 12:50 19,2 °C 29,4 °C 21,7 °C 44 % 1025,6 hPa 0,0 l/m² 2 min 852 W/m² 16,1 km/h (3 Bft) 97,87 %
29.04.2026 12:52 19,2 °C 28,9 °C 21,1 °C 43 % 1025,6 hPa 0,0 l/m² 2 min 857 W/m² 35,4 km/h (5 Bft) 97,87 %
29.04.2026 12:54 19,3 °C 29,4 °C 21,7 °C 42 % 1025,6 hPa 0,0 l/m² 2 min 856 W/m² 16,1 km/h (3 Bft) 97,87 %
29.04.2026 12:56 19,4 °C 29,4 °C 22,2 °C 42 % 1025,5 hPa 0,0 l/m² 2 min 860 W/m² 16,1 km/h (3 Bft) 93,62 %
29.04.2026 12:58 19,5 °C 28,9 °C 21,7 °C 42 % 1025,6 hPa 0,0 l/m² 2 min 861 W/m² 9,7 km/h (2 Bft) 94,00 %
29.04.2026 13:00 19,5 °C 29,4 °C 22,2 °C 43 % 1025,6 hPa 0,0 l/m² 2 min 859 W/m² 19,3 km/h (3 Bft) 95,92 %
29.04.2026 13:02 19,5 °C 27,8 °C 22,2 °C 41 % 1025,5 hPa 0,0 l/m² 2 min 860 W/m² 16,1 km/h (3 Bft) 94,87 %
29.04.2026 13:04 19,5 °C 28,3 °C 21,7 °C 42 % 1025,5 hPa 0,0 l/m² 2 min 860 W/m² 16,1 km/h (3 Bft) 95,65 %
29.04.2026 13:06 19,5 °C 28,3 °C 21,7 °C 42 % 1025,5 hPa 0,0 l/m² 2 min 863 W/m² 12,9 km/h (3 Bft) 96,00 %
29.04.2026 13:08 19,5 °C 29,4 °C 22,2 °C 43 % 1025,4 hPa 0,0 l/m² 2 min 863 W/m² 12,9 km/h (3 Bft) 95,74 %
29.04.2026 13:10 19,5 °C 28,9 °C 21,7 °C 42 % 1025,4 hPa 0,0 l/m² 2 min 863 W/m² 19,3 km/h (3 Bft) 94,00 %
29.04.2026 13:12 19,5 °C 28,9 °C 22,2 °C 43 % 1025,4 hPa 0,0 l/m² 2 min 865 W/m² 16,1 km/h (3 Bft) 96,00 %
29.04.2026 13:14 19,5 °C 29,4 °C 21,1 °C 42 % 1025,4 hPa 0,0 l/m² 2 min 864 W/m² 19,3 km/h (3 Bft) 92,11 %
29.04.2026 13:16 19,5 °C 29,4 °C 22,2 °C 42 % 1025,4 hPa 0,0 l/m² 2 min 867 W/m² 16,1 km/h (3 Bft) 95,74 %
29.04.2026 13:18 19,6 °C 29,4 °C 22,8 °C 42 % 1025,4 hPa 0,0 l/m² 2 min 865 W/m² 16,1 km/h (3 Bft) 95,74 %
29.04.2026 13:20 19,7 °C 30,0 °C 22,8 °C 43 % 1025,4 hPa 0,0 l/m² 2 min 865 W/m² 12,9 km/h (3 Bft) 95,74 %
29.04.2026 13:22 19,8 °C 30,6 °C 22,8 °C 43 % 1025,4 hPa 0,0 l/m² 2 min 866 W/m² 25,7 km/h (4 Bft) 95,74 %
29.04.2026 13:24 19,8 °C 28,9 °C 22,2 °C 42 % 1025,4 hPa 0,0 l/m² 2 min 866 W/m² 25,7 km/h (4 Bft) 93,48 %
29.04.2026 13:26 19,8 °C 29,4 °C 22,2 °C 42 % 1025,5 hPa 0,0 l/m² 2 min 868 W/m² 16,1 km/h (3 Bft) 96,30 %
29.04.2026 13:28 19,8 °C 27,8 °C 22,8 °C 41 % 1025,4 hPa 0,0 l/m² 2 min 866 W/m² 19,3 km/h (3 Bft) 100,00 %
29.04.2026 13:30 19,8 °C 28,9 °C 22,2 °C 42 % 1025,5 hPa 0,0 l/m² 2 min 865 W/m² 16,1 km/h (3 Bft) 94,74 %
29.04.2026 13:32 19,8 °C 28,9 °C 22,2 °C 42 % 1025,5 hPa 0,0 l/m² 2 min 867 W/m² 22,5 km/h (4 Bft) 96,92 %
29.04.2026 13:34 19,8 °C 29,4 °C 22,2 °C 42 % 1025,5 hPa 0,0 l/m² 2 min 867 W/m² 16,1 km/h (3 Bft) 97,87 %
29.04.2026 13:36 19,8 °C 28,9 °C 22,2 °C 41 % 1025,4 hPa 0,0 l/m² 2 min 866 W/m² 19,3 km/h (3 Bft) 97,14 %
29.04.2026 13:38 19,8 °C 29,4 °C 22,2 °C 42 % 1025,4 hPa 0,0 l/m² 2 min 867 W/m² 12,9 km/h (3 Bft) 95,92 %
29.04.2026 13:40 19,9 °C 30,0 °C 22,2 °C 42 % 1025,5 hPa 0,0 l/m² 2 min 867 W/m² 12,9 km/h (3 Bft) 97,87 %
29.04.2026 13:42 20,0 °C 30,0 °C 21,7 °C 42 % 1025,5 hPa 0,0 l/m² 2 min 868 W/m² 19,3 km/h (3 Bft) 97,87 %
29.04.2026 13:44 20,1 °C 30,0 °C 20,0 °C 41 % 1025,6 hPa 0,0 l/m² 2 min 867 W/m² 16,1 km/h (3 Bft) 100,00 %
29.04.2026 13:46 20,1 °C 28,9 °C 19,4 °C 41 % 1025,4 hPa 0,0 l/m² 2 min 862 W/m² 25,7 km/h (4 Bft) 100,00 %
29.04.2026 13:48 20,1 °C 29,4 °C 18,3 °C 41 % 1025,5 hPa 0,0 l/m² 2 min 863 W/m² 22,5 km/h (4 Bft) 100,00 %
29.04.2026 13:50 20,1 °C 29,4 °C 17,8 °C 41 % 1025,4 hPa 0,0 l/m² 2 min 864 W/m² 16,1 km/h (3 Bft) 95,74 %
29.04.2026 13:52 20,1 °C 29,4 °C 17,8 °C 41 % 1025,4 hPa 0,0 l/m² 2 min 862 W/m² 29,0 km/h (5 Bft) 100,00 %
29.04.2026 13:54 20,2 °C 29,4 °C 17,2 °C 41 % 1025,4 hPa 0,0 l/m² 2 min 863 W/m² 16,1 km/h (3 Bft) 97,96 %
29.04.2026 13:56 20,2 °C 30,0 °C 16,7 °C 40 % 1025,3 hPa 0,0 l/m² 2 min 864 W/m² 22,5 km/h (4 Bft) 100,00 %
29.04.2026 13:58 20,2 °C 29,4 °C 16,7 °C 40 % 1025,3 hPa 0,0 l/m² 2 min 862 W/m² 19,3 km/h (3 Bft) 95,74 %
29.04.2026 14:00 20,2 °C 30,0 °C 16,7 °C 41 % 1025,3 hPa 0,0 l/m² 2 min 861 W/m² 12,9 km/h (3 Bft) 98,00 %
29.04.2026 14:02 20,2 °C 30,0 °C 16,7 °C 41 % 1025,3 hPa 0,0 l/m² 2 min 860 W/m² 12,9 km/h (3 Bft) 100,00 %
29.04.2026 14:04 20,3 °C 29,4 °C 16,7 °C 41 % 1025,3 hPa 0,0 l/m² 2 min 861 W/m² 19,3 km/h (3 Bft) 97,87 %
29.04.2026 14:06 20,2 °C 28,9 °C 16,7 °C 40 % 1025,3 hPa 0,0 l/m² 2 min 861 W/m² 16,1 km/h (3 Bft) 97,96 %
29.04.2026 14:08 20,3 °C 29,4 °C 16,7 °C 40 % 1025,2 hPa 0,0 l/m² 2 min 859 W/m² 16,1 km/h (3 Bft) 100,00 %
29.04.2026 14:10 20,3 °C 28,9 °C 16,1 °C 40 % 1025,2 hPa 0,0 l/m² 2 min 856 W/m² 25,7 km/h (4 Bft) 100,00 %
29.04.2026 14:12 20,3 °C 30,0 °C 16,7 °C 40 % 1025,2 hPa 0,0 l/m² 2 min 856 W/m² 16,1 km/h (3 Bft) 100,00 %
29.04.2026 14:14 20,3 °C 30,6 °C 16,7 °C 40 % 1025,3 hPa 0,0 l/m² 2 min 857 W/m² 9,7 km/h (2 Bft) 100,00 %
29.04.2026 14:16 20,3 °C 28,9 °C 16,1 °C 39 % 1025,2 hPa 0,0 l/m² 2 min 855 W/m² 45,1 km/h (6 Bft) 100,00 %
29.04.2026 14:18 20,3 °C 28,9 °C 16,7 °C 40 % 1025,3 hPa 0,0 l/m² 2 min 854 W/m² 16,1 km/h (3 Bft) 97,87 %
29.04.2026 14:20 20,3 °C 29,4 °C 16,1 °C 40 % 1025,2 hPa 0,0 l/m² 2 min 853 W/m² 12,9 km/h (3 Bft) 100,00 %
29.04.2026 14:22 20,4 °C 30,0 °C 16,7 °C 40 % 1025,2 hPa 0,0 l/m² 2 min 852 W/m² 19,3 km/h (3 Bft) 100,00 %
29.04.2026 14:24 20,4 °C 30,0 °C 16,7 °C 39 % 1025,2 hPa 0,0 l/m² 2 min 850 W/m² 29,0 km/h (5 Bft) 97,83 %
29.04.2026 14:26 20,5 °C 30,0 °C 16,1 °C 40 % 1025,1 hPa 0,0 l/m² 2 min 848 W/m² 29,0 km/h (5 Bft) 100,00 %
29.04.2026 14:28 20,6 °C 30,0 °C 16,7 °C 40 % 1025,3 hPa 0,0 l/m² 2 min 847 W/m² 16,1 km/h (3 Bft) 100,00 %
29.04.2026 14:30 20,6 °C 30,6 °C 16,7 °C 40 % 1025,2 hPa 0,0 l/m² 2 min 846 W/m² 16,1 km/h (3 Bft) 100,00 %
29.04.2026 14:32 20,7 °C 29,4 °C 16,7 °C 39 % 1025,2 hPa 0,0 l/m² 2 min 844 W/m² 19,3 km/h (3 Bft) 100,00 %
29.04.2026 14:34 20,7 °C 28,9 °C 16,7 °C 39 % 1025,2 hPa 0,0 l/m² 2 min 843 W/m² 19,3 km/h (3 Bft) 97,87 %
29.04.2026 14:36 20,8 °C 30,6 °C 16,7 °C 40 % 1025,2 hPa 0,0 l/m² 2 min 843 W/m² 12,9 km/h (3 Bft) 100,00 %
29.04.2026 14:38 20,9 °C 31,7 °C 17,2 °C 40 % 1025,2 hPa 0,0 l/m² 2 min 840 W/m² 12,9 km/h (3 Bft) 98,04 %
29.04.2026 14:40 21,1 °C 31,7 °C 17,2 °C 39 % 1025,2 hPa 0,0 l/m² 2 min 840 W/m² 19,3 km/h (3 Bft) 97,83 %
29.04.2026 14:42 21,1 °C 31,1 °C 16,7 °C 39 % 1025,1 hPa 0,0 l/m² 2 min 837 W/m² 19,3 km/h (3 Bft) 97,87 %
29.04.2026 14:44 21,1 °C 30,6 °C 16,7 °C 39 % 1025,1 hPa 0,0 l/m² 2 min 836 W/m² 22,5 km/h (4 Bft) 97,87 %
29.04.2026 14:46 21,1 °C 30,0 °C 17,2 °C 39 % 1025,1 hPa 0,0 l/m² 2 min 832 W/m² 22,5 km/h (4 Bft) 95,74 %
29.04.2026 14:48 21,0 °C 30,6 °C 17,2 °C 39 % 1025,2 hPa 0,0 l/m² 2 min 829 W/m² 22,5 km/h (4 Bft) 96,00 %
29.04.2026 14:50 20,9 °C 30,0 °C 17,2 °C 40 % 1025,2 hPa 0,0 l/m² 2 min 825 W/m² 19,3 km/h (3 Bft) 93,62 %
29.04.2026 14:52 21,0 °C 29,4 °C 17,2 °C 40 % 1025,1 hPa 0,0 l/m² 2 min 826 W/m² 12,9 km/h (3 Bft) 95,12 %
29.04.2026 14:54 21,1 °C 30,0 °C 17,8 °C 39 % 1025,1 hPa 0,0 l/m² 2 min 825 W/m² 19,3 km/h (3 Bft) 95,74 %
29.04.2026 14:56 21,0 °C 30,0 °C 17,8 °C 39 % 1025,1 hPa 0,0 l/m² 2 min 822 W/m² 19,3 km/h (3 Bft) 95,12 %
29.04.2026 14:58 20,9 °C 28,9 °C 17,8 °C 39 % 1025,1 hPa 0,0 l/m² 2 min 821 W/m² 22,5 km/h (4 Bft) 96,00 %
29.04.2026 15:00 20,9 °C 28,9 °C 17,8 °C 39 % 1025,1 hPa 0,0 l/m² 2 min 816 W/m² 32,2 km/h (5 Bft) 95,65 %
29.04.2026 15:02 21,1 °C 30,0 °C 17,8 °C 39 % 1025,1 hPa 0,0 l/m² 2 min 816 W/m² 16,1 km/h (3 Bft) 94,34 %
29.04.2026 15:04 21,1 °C 29,4 °C 17,8 °C 39 % 1025,1 hPa 0,0 l/m² 2 min 813 W/m² 12,9 km/h (3 Bft) 98,00 %
29.04.2026 15:06 21,2 °C 29,4 °C 17,8 °C 39 % 1025,1 hPa 0,0 l/m² 2 min 810 W/m² 32,2 km/h (5 Bft) 93,62 %
29.04.2026 15:08 21,2 °C 29,4 °C 17,8 °C 39 % 1025,0 hPa 0,0 l/m² 2 min 804 W/m² 19,3 km/h (3 Bft) 97,37 %
29.04.2026 15:10 21,1 °C 28,9 °C 17,8 °C 38 % 1025,1 hPa 0,0 l/m² 2 min 803 W/m² 29,0 km/h (5 Bft) 95,74 %
29.04.2026 15:12 21,1 °C 28,9 °C 17,8 °C 38 % 1025,1 hPa 0,0 l/m² 2 min 802 W/m² 22,5 km/h (4 Bft) 95,74 %
29.04.2026 15:14 21,1 °C 28,3 °C 17,8 °C 38 % 1025,2 hPa 0,0 l/m² 2 min 799 W/m² 19,3 km/h (3 Bft) 97,87 %
29.04.2026 15:16 21,1 °C 28,9 °C 17,8 °C 39 % 1025,0 hPa 0,0 l/m² 2 min 797 W/m² 16,1 km/h (3 Bft) 93,88 %
29.04.2026 15:18 21,1 °C 28,9 °C 17,8 °C 37 % 1025,0 hPa 0,0 l/m² 2 min 793 W/m² 25,7 km/h (4 Bft) 96,00 %
29.04.2026 15:20 21,0 °C 28,3 °C 17,8 °C 39 % 1025,0 hPa 0,0 l/m² 2 min 789 W/m² 16,1 km/h (3 Bft) 97,87 %
29.04.2026 15:22 21,1 °C 28,9 °C 18,3 °C 39 % 1025,1 hPa 0,0 l/m² 2 min 788 W/m² 16,1 km/h (3 Bft) 97,87 %
29.04.2026 15:24 21,1 °C 29,4 °C 18,3 °C 39 % 1025,1 hPa 0,0 l/m² 2 min 784 W/m² 12,9 km/h (3 Bft) 97,87 %
29.04.2026 15:26 21,2 °C 28,9 °C 18,3 °C 38 % 1025,0 hPa 0,0 l/m² 2 min 780 W/m² 25,7 km/h (4 Bft) 95,12 %
29.04.2026 15:28 21,2 °C 29,4 °C 18,3 °C 38 % 1025,0 hPa 0,0 l/m² 2 min 776 W/m² 12,9 km/h (3 Bft) 97,87 %
29.04.2026 15:30 21,3 °C 30,0 °C 18,9 °C 38 % 1025,0 hPa 0,0 l/m² 2 min 774 W/m² 22,5 km/h (4 Bft) 96,00 %
29.04.2026 15:32 21,3 °C 28,9 °C 18,3 °C 37 % 1025,0 hPa 0,0 l/m² 2 min 770 W/m² 19,3 km/h (3 Bft) 95,92 %
29.04.2026 15:34 21,3 °C 28,9 °C 18,3 °C 38 % 1025,1 hPa 0,0 l/m² 2 min 768 W/m² 25,7 km/h (4 Bft) 96,00 %
29.04.2026 15:36 21,3 °C 27,8 °C 18,3 °C 37 % 1024,8 hPa 0,0 l/m² 2 min 763 W/m² 35,4 km/h (5 Bft) 95,12 %
29.04.2026 15:38 21,3 °C 27,8 °C 17,8 °C 37 % 1025,0 hPa 0,0 l/m² 2 min 760 W/m² 35,4 km/h (5 Bft) 96,00 %
29.04.2026 15:40 21,2 °C 28,9 °C 18,3 °C 39 % 1025,0 hPa 0,0 l/m² 2 min 758 W/m² 19,3 km/h (3 Bft) 96,00 %
29.04.2026 15:42 21,2 °C 28,3 °C 18,3 °C 38 % 1025,0 hPa 0,0 l/m² 2 min 759 W/m² 12,9 km/h (3 Bft) 97,56 %
29.04.2026 15:44 21,3 °C 27,8 °C 18,3 °C 39 % 1024,9 hPa 0,0 l/m² 2 min 752 W/m² 25,7 km/h (4 Bft) 95,74 %
29.04.2026 15:46 21,3 °C 28,3 °C 18,9 °C 39 % 1024,9 hPa 0,0 l/m² 2 min 748 W/m² 25,7 km/h (4 Bft) 96,00 %
29.04.2026 15:48 21,4 °C 28,3 °C 18,3 °C 38 % 1024,9 hPa 0,0 l/m² 2 min 744 W/m² 12,9 km/h (3 Bft) 97,83 %
29.04.2026 15:50 21,5 °C 29,4 °C 18,9 °C 39 % 1025,0 hPa 0,0 l/m² 2 min 739 W/m² 19,3 km/h (3 Bft) 98,00 %
29.04.2026 15:52 21,5 °C 28,9 °C 18,9 °C 38 % 1024,9 hPa 0,0 l/m² 2 min 738 W/m² 19,3 km/h (3 Bft) 95,74 %
29.04.2026 15:54 21,4 °C 28,9 °C 18,9 °C 38 % 1024,9 hPa 0,0 l/m² 2 min 734 W/m² 22,5 km/h (4 Bft) 100,00 %
29.04.2026 15:56 21,4 °C 28,3 °C 18,3 °C 38 % 1025,0 hPa 0,0 l/m² 2 min 730 W/m² 19,3 km/h (3 Bft) 100,00 %
29.04.2026 15:58 21,4 °C 27,8 °C 18,3 °C 38 % 1024,9 hPa 0,0 l/m² 2 min 725 W/m² 22,5 km/h (4 Bft) 97,87 %
29.04.2026 16:00 21,4 °C 28,3 °C 18,3 °C 38 % 1025,0 hPa 0,0 l/m² 2 min 721 W/m² 12,9 km/h (3 Bft) 97,37 %
29.04.2026 16:02 21,5 °C 27,8 °C 18,9 °C 38 % 1024,9 hPa 0,0 l/m² 2 min 717 W/m² 19,3 km/h (3 Bft) 98,00 %
29.04.2026 16:04 21,5 °C 27,2 °C 18,3 °C 37 % 1024,9 hPa 0,0 l/m² 2 min 714 W/m² 22,5 km/h (4 Bft) 95,74 %
29.04.2026 16:06 21,4 °C 27,2 °C 18,3 °C 37 % 1024,9 hPa 0,0 l/m² 2 min 709 W/m² 22,5 km/h (4 Bft) 98,00 %
29.04.2026 16:08 21,3 °C 27,2 °C 18,3 °C 38 % 1024,9 hPa 0,0 l/m² 2 min 706 W/m² 19,3 km/h (3 Bft) 95,65 %
29.04.2026 16:10 21,3 °C 26,7 °C 18,3 °C 38 % 1024,9 hPa 0,0 l/m² 2 min 702 W/m² 29,0 km/h (5 Bft) 98,00 %
29.04.2026 16:12 21,2 °C 26,7 °C 18,3 °C 38 % 1024,9 hPa 0,0 l/m² 2 min 697 W/m² 19,3 km/h (3 Bft) 100,00 %
29.04.2026 16:14 21,2 °C 26,7 °C 18,3 °C 38 % 1024,9 hPa 0,0 l/m² 2 min 691 W/m² 19,3 km/h (3 Bft) 97,87 %
29.04.2026 16:16 21,2 °C 26,7 °C 18,3 °C 38 % 1025,0 hPa 0,0 l/m² 2 min 689 W/m² 22,5 km/h (4 Bft) 98,00 %
29.04.2026 16:18 21,2 °C 27,2 °C 18,3 °C 38 % 1025,0 hPa 0,0 l/m² 2 min 685 W/m² 19,3 km/h (3 Bft) 100,00 %
29.04.2026 16:20 21,1 °C 27,2 °C 18,3 °C 38 % 1025,0 hPa 0,0 l/m² 2 min 682 W/m² 16,1 km/h (3 Bft) 100,00 %
29.04.2026 16:22 21,1 °C 27,8 °C 18,3 °C 38 % 1025,0 hPa 0,0 l/m² 2 min 677 W/m² 16,1 km/h (3 Bft) 97,83 %
29.04.2026 16:24 21,1 °C 27,2 °C 18,3 °C 37 % 1024,9 hPa 0,0 l/m² 2 min 672 W/m² 19,3 km/h (3 Bft) 97,87 %
29.04.2026 16:26 21,2 °C 27,8 °C 18,3 °C 39 % 1024,9 hPa 0,0 l/m² 2 min 668 W/m² 22,5 km/h (4 Bft) 100,00 %
29.04.2026 16:28 21,2 °C 27,2 °C 18,3 °C 38 % 1024,9 hPa 0,0 l/m² 2 min 664 W/m² 16,1 km/h (3 Bft) 100,00 %
29.04.2026 16:30 21,2 °C 27,8 °C 18,9 °C 38 % 1024,9 hPa 0,0 l/m² 2 min 661 W/m² 25,7 km/h (4 Bft) 100,00 %
29.04.2026 16:32 21,2 °C 27,8 °C 18,3 °C 37 % 1024,8 hPa 0,0 l/m² 2 min 655 W/m² 19,3 km/h (3 Bft) 97,87 %
29.04.2026 16:34 21,1 °C 26,7 °C 18,3 °C 37 % 1024,8 hPa 0,0 l/m² 2 min 652 W/m² 22,5 km/h (4 Bft) 97,87 %
29.04.2026 16:36 20,9 °C 26,7 °C 18,3 °C 37 % 1024,8 hPa 0,0 l/m² 2 min 646 W/m² 32,2 km/h (5 Bft) 100,00 %
29.04.2026 16:38 20,9 °C 27,2 °C 18,3 °C 39 % 1024,8 hPa 0,0 l/m² 2 min 643 W/m² 19,3 km/h (3 Bft) 100,00 %
29.04.2026 16:40 20,9 °C 27,2 °C 18,3 °C 38 % 1024,8 hPa 0,0 l/m² 2 min 637 W/m² 16,1 km/h (3 Bft) 97,87 %
29.04.2026 16:42 20,9 °C 27,2 °C 18,9 °C 38 % 1024,7 hPa 0,0 l/m² 2 min 633 W/m² 16,1 km/h (3 Bft) 100,00 %
29.04.2026 16:44 21,0 °C 27,8 °C 18,9 °C 39 % 1024,7 hPa 0,0 l/m² 2 min 628 W/m² 12,9 km/h (3 Bft) 100,00 %
29.04.2026 16:46 21,1 °C 27,2 °C 18,9 °C 38 % 1024,8 hPa 0,0 l/m² 2 min 622 W/m² 22,5 km/h (4 Bft) 97,87 %
29.04.2026 16:48 21,2 °C 27,8 °C 18,9 °C 39 % 1024,7 hPa 0,0 l/m² 2 min 618 W/m² 16,1 km/h (3 Bft) 97,87 %
29.04.2026 16:50 21,2 °C 27,2 °C 18,9 °C 37 % 1024,6 hPa 0,0 l/m² 2 min 613 W/m² 19,3 km/h (3 Bft) 96,00 %
29.04.2026 16:52 21,1 °C 26,7 °C 18,3 °C 37 % 1024,7 hPa 0,0 l/m² 2 min 608 W/m² 19,3 km/h (3 Bft) 97,96 %
29.04.2026 16:54 21,0 °C 25,6 °C 18,3 °C 37 % 1024,7 hPa 0,0 l/m² 2 min 602 W/m² 29,0 km/h (5 Bft) 97,87 %
29.04.2026 16:56 20,9 °C 25,6 °C 18,3 °C 37 % 1024,7 hPa 0,0 l/m² 2 min 598 W/m² 35,4 km/h (5 Bft) 100,00 %
29.04.2026 16:58 20,9 °C 25,6 °C 17,8 °C 37 % 1024,7 hPa 0,0 l/m² 2 min 593 W/m² 25,7 km/h (4 Bft) 96,72 %
29.04.2026 17:00 20,9 °C 26,1 °C 18,3 °C 38 % 1024,7 hPa 0,0 l/m² 2 min 586 W/m² 19,3 km/h (3 Bft) 98,11 %
29.04.2026 17:02 20,9 °C 26,1 °C 18,3 °C 37 % 1024,7 hPa 0,0 l/m² 2 min 582 W/m² 16,1 km/h (3 Bft) 97,87 %
29.04.2026 17:04 20,9 °C 26,1 °C 18,3 °C 38 % 1024,7 hPa 0,0 l/m² 2 min 576 W/m² 19,3 km/h (3 Bft) 97,87 %
29.04.2026 17:06 21,0 °C 26,7 °C 18,9 °C 38 % 1024,7 hPa 0,0 l/m² 2 min 572 W/m² 25,7 km/h (4 Bft) 97,87 %
29.04.2026 17:08 21,0 °C 26,1 °C 18,9 °C 38 % 1024,7 hPa 0,0 l/m² 2 min 566 W/m² 29,0 km/h (5 Bft) 97,87 %
29.04.2026 17:10 21,1 °C 26,7 °C 18,3 °C 37 % 1024,7 hPa 0,0 l/m² 2 min 563 W/m² 22,5 km/h (4 Bft) 97,96 %
29.04.2026 17:12 21,0 °C 26,1 °C 18,3 °C 38 % 1024,7 hPa 0,0 l/m² 2 min 558 W/m² 19,3 km/h (3 Bft) 97,44 %
29.04.2026 17:14 21,0 °C 26,1 °C 18,3 °C 37 % 1024,6 hPa 0,0 l/m² 2 min 552 W/m² 16,1 km/h (3 Bft) 97,83 %
29.04.2026 17:16 20,9 °C 26,1 °C 18,3 °C 37 % 1024,7 hPa 0,0 l/m² 2 min 546 W/m² 22,5 km/h (4 Bft) 97,87 %
29.04.2026 17:18 20,9 °C 25,6 °C 18,3 °C 37 % 1024,7 hPa 0,0 l/m² 2 min 540 W/m² 25,7 km/h (4 Bft) 97,87 %
29.04.2026 17:20 20,9 °C 26,1 °C 18,3 °C 38 % 1024,6 hPa 0,0 l/m² 2 min 534 W/m² 22,5 km/h (4 Bft) 97,87 %
29.04.2026 17:22 20,9 °C 26,1 °C 18,3 °C 38 % 1024,6 hPa 0,0 l/m² 2 min 529 W/m² 25,7 km/h (4 Bft) 100,00 %
29.04.2026 17:24 20,9 °C 26,7 °C 18,3 °C 38 % 1024,6 hPa 0,0 l/m² 2 min 524 W/m² 16,1 km/h (3 Bft) 100,00 %
29.04.2026 17:26 20,9 °C 26,7 °C 18,3 °C 37 % 1024,6 hPa 0,0 l/m² 2 min 519 W/m² 22,5 km/h (4 Bft) 97,87 %
29.04.2026 17:28 20,9 °C 26,1 °C 18,3 °C 37 % 1024,6 hPa 0,0 l/m² 2 min 513 W/m² 16,1 km/h (3 Bft) 100,00 %
29.04.2026 17:30 20,9 °C 26,1 °C 18,9 °C 37 % 1024,6 hPa 0,0 l/m² 2 min 509 W/m² 12,9 km/h (3 Bft) 100,00 %
29.04.2026 17:32 20,8 °C 26,1 °C 18,9 °C 36 % 1024,6 hPa 0,0 l/m² 2 min 504 W/m² 29,0 km/h (5 Bft) 97,87 %
29.04.2026 17:34 20,8 °C 25,6 °C 18,3 °C 37 % 1024,6 hPa 0,0 l/m² 2 min 498 W/m² 16,1 km/h (3 Bft) 100,00 %
29.04.2026 17:36 20,8 °C 25,6 °C 18,3 °C 38 % 1024,5 hPa 0,0 l/m² 2 min 491 W/m² 19,3 km/h (3 Bft) 100,00 %
29.04.2026 17:38 20,8 °C 26,1 °C 18,3 °C 37 % 1024,6 hPa 0,0 l/m² 2 min 486 W/m² 16,1 km/h (3 Bft) 95,74 %
29.04.2026 17:40 20,8 °C 26,1 °C 18,3 °C 37 % 1024,6 hPa 0,0 l/m² 2 min 481 W/m² 12,9 km/h (3 Bft) 100,00 %
29.04.2026 17:42 20,8 °C 26,1 °C 18,3 °C 37 % 1024,6 hPa 0,0 l/m² 2 min 475 W/m² 19,3 km/h (3 Bft) 100,00 %
29.04.2026 17:44 20,8 °C 26,1 °C 18,3 °C 37 % 1024,6 hPa 0,0 l/m² 2 min 469 W/m² 12,9 km/h (3 Bft) 97,87 %
29.04.2026 17:46 20,8 °C 26,7 °C 18,9 °C 38 % 1024,6 hPa 0,0 l/m² 2 min 464 W/m² 19,3 km/h (3 Bft) 100,00 %
29.04.2026 17:48 20,7 °C 26,1 °C 18,9 °C 37 % 1024,6 hPa 0,0 l/m² 2 min 458 W/m² 25,7 km/h (4 Bft) 98,00 %
29.04.2026 17:50 20,7 °C 26,1 °C 18,3 °C 38 % 1024,6 hPa 0,0 l/m² 2 min 453 W/m² 19,3 km/h (3 Bft) 97,87 %
29.04.2026 17:52 20,7 °C 26,1 °C 18,9 °C 38 % 1024,6 hPa 0,0 l/m² 2 min 447 W/m² 16,1 km/h (3 Bft) 100,00 %
29.04.2026 17:54 20,7 °C 26,7 °C 18,3 °C 39 % 1024,6 hPa 0,0 l/m² 2 min 441 W/m² 22,5 km/h (4 Bft) 100,00 %
29.04.2026 17:56 20,7 °C 26,7 °C 18,3 °C 37 % 1024,6 hPa 0,0 l/m² 2 min 435 W/m² 22,5 km/h (4 Bft) 96,00 %
29.04.2026 17:58 20,7 °C 26,7 °C 18,9 °C 38 % 1024,6 hPa 0,0 l/m² 2 min 429 W/m² 16,1 km/h (3 Bft) 97,87 %
29.04.2026 18:00 20,7 °C 26,7 °C 18,9 °C 39 % 1024,6 hPa 0,0 l/m² 2 min 424 W/m² 16,1 km/h (3 Bft) 97,83 %
29.04.2026 18:02 20,7 °C 26,7 °C 18,9 °C 37 % 1024,6 hPa 0,0 l/m² 2 min 419 W/m² 22,5 km/h (4 Bft) 98,00 %
29.04.2026 18:04 20,7 °C 26,7 °C 18,3 °C 37 % 1024,7 hPa 0,0 l/m² 2 min 413 W/m² 16,1 km/h (3 Bft) 95,74 %
29.04.2026 18:06 20,6 °C 26,7 °C 18,3 °C 38 % 1024,6 hPa 0,0 l/m² 2 min 408 W/m² 19,3 km/h (3 Bft) 95,83 %
29.04.2026 18:08 20,6 °C 26,1 °C 18,3 °C 37 % 1024,6 hPa 0,0 l/m² 2 min 403 W/m² 19,3 km/h (3 Bft) 95,74 %
29.04.2026 18:10 20,6 °C 26,1 °C 18,3 °C 38 % 1024,6 hPa 0,0 l/m² 2 min 398 W/m² 19,3 km/h (3 Bft) 95,74 %
29.04.2026 18:12 20,5 °C 25,6 °C 18,3 °C 38 % 1024,5 hPa 0,0 l/m² 2 min 393 W/m² 19,3 km/h (3 Bft) 94,74 %
29.04.2026 18:14 20,5 °C 26,1 °C 18,3 °C 38 % 1024,6 hPa 0,0 l/m² 2 min 388 W/m² 12,9 km/h (3 Bft) 93,62 %
29.04.2026 18:16 20,6 °C 26,1 °C 18,3 °C 38 % 1024,5 hPa 0,0 l/m² 2 min 383 W/m² 12,9 km/h (3 Bft) 95,92 %
29.04.2026 18:18 20,4 °C 26,1 °C 18,3 °C 39 % 1024,6 hPa 0,0 l/m² 2 min 377 W/m² 16,1 km/h (3 Bft) 96,00 %
29.04.2026 18:20 20,4 °C 26,7 °C 18,3 °C 40 % 1024,5 hPa 0,0 l/m² 2 min 373 W/m² 12,9 km/h (3 Bft) 89,36 %
29.04.2026 18:22 20,4 °C 26,1 °C 17,8 °C 39 % 1024,4 hPa 0,0 l/m² 2 min 366 W/m² 19,3 km/h (3 Bft) 95,74 %
29.04.2026 18:24 20,3 °C 25,6 °C 17,8 °C 39 % 1024,5 hPa 0,0 l/m² 2 min 358 W/m² 22,5 km/h (4 Bft) 94,74 %
29.04.2026 18:26 20,3 °C 25,6 °C 17,2 °C 39 % 1024,6 hPa 0,0 l/m² 2 min 352 W/m² 22,5 km/h (4 Bft) 94,00 %
29.04.2026 18:28 20,3 °C 26,1 °C 17,2 °C 39 % 1024,6 hPa 0,0 l/m² 2 min 345 W/m² 12,9 km/h (3 Bft) 93,62 %
29.04.2026 18:30 20,2 °C 26,1 °C 16,7 °C 39 % 1024,6 hPa 0,0 l/m² 2 min 339 W/m² 22,5 km/h (4 Bft) 95,74 %
29.04.2026 18:32 20,2 °C 25,6 °C 16,7 °C 39 % 1024,6 hPa 0,0 l/m² 2 min 332 W/m² 22,5 km/h (4 Bft) 93,48 %
29.04.2026 18:34 20,1 °C 25,0 °C 16,1 °C 39 % 1024,5 hPa 0,0 l/m² 2 min 324 W/m² 16,1 km/h (3 Bft) 96,00 %
29.04.2026 18:36 20,1 °C 25,0 °C 16,1 °C 40 % 1024,5 hPa 0,0 l/m² 2 min 317 W/m² 25,7 km/h (4 Bft) 95,74 %
29.04.2026 18:38 19,9 °C 25,0 °C 15,6 °C 39 % 1024,6 hPa 0,0 l/m² 2 min 311 W/m² 19,3 km/h (3 Bft) 95,74 %
29.04.2026 18:40 19,8 °C 24,4 °C 15,6 °C 41 % 1024,6 hPa 0,0 l/m² 2 min 304 W/m² 12,9 km/h (3 Bft) 95,12 %
29.04.2026 18:42 19,7 °C 23,9 °C 15,0 °C 41 % 1024,6 hPa 0,0 l/m² 2 min 298 W/m² 19,3 km/h (3 Bft) 92,00 %
29.04.2026 18:44 19,6 °C 23,9 °C 15,0 °C 42 % 1024,6 hPa 0,0 l/m² 2 min 290 W/m² 19,3 km/h (3 Bft) 93,62 %
29.04.2026 18:46 19,4 °C 22,8 °C 15,0 °C 41 % 1024,6 hPa 0,0 l/m² 2 min 282 W/m² 9,7 km/h (2 Bft) 95,65 %
29.04.2026 18:48 19,4 °C 21,1 °C 15,0 °C 41 % 1024,7 hPa 0,0 l/m² 2 min 274 W/m² 22,5 km/h (4 Bft) 100,00 %
29.04.2026 18:50 19,3 °C 20,0 °C 15,0 °C 42 % 1024,6 hPa 0,0 l/m² 2 min 267 W/m² 12,9 km/h (3 Bft) 98,00 %
29.04.2026 18:52 19,2 °C 19,4 °C 14,4 °C 42 % 1024,6 hPa 0,0 l/m² 2 min 260 W/m² 12,9 km/h (3 Bft) 97,56 %
29.04.2026 18:54 19,1 °C 18,9 °C 14,4 °C 43 % 1024,6 hPa 0,0 l/m² 2 min 253 W/m² 22,5 km/h (4 Bft) 98,00 %
29.04.2026 18:56 18,9 °C 18,3 °C 14,4 °C 43 % 1024,6 hPa 0,0 l/m² 2 min 245 W/m² 19,3 km/h (3 Bft) 91,49 %
29.04.2026 18:58 18,8 °C 18,3 °C 14,4 °C 44 % 1024,6 hPa 0,0 l/m² 2 min 237 W/m² 12,9 km/h (3 Bft) 97,87 %
29.04.2026 19:00 18,7 °C 18,3 °C 14,4 °C 45 % 1024,6 hPa 0,0 l/m² 2 min 230 W/m² 19,3 km/h (3 Bft) 94,00 %
29.04.2026 19:02 18,6 °C 18,3 °C 13,9 °C 44 % 1024,6 hPa 0,0 l/m² 2 min 216 W/m² 16,1 km/h (3 Bft) 100,00 %
29.04.2026 19:04 18,6 °C 17,8 °C 13,9 °C 45 % 1024,6 hPa 0,0 l/m² 0 min 124 W/m² 16,1 km/h (3 Bft) 98,00 %
29.04.2026 19:06 18,4 °C 17,8 °C 13,9 °C 47 % 1024,5 hPa 0,0 l/m² 0 min 47 W/m² 12,9 km/h (3 Bft) 96,00 %
29.04.2026 19:08 18,3 °C 17,8 °C 13,9 °C 45 % 1024,6 hPa 0,0 l/m² 0 min 40 W/m² 25,7 km/h (4 Bft) 97,14 %
29.04.2026 19:10 18,2 °C 17,8 °C 13,9 °C 47 % 1024,6 hPa 0,0 l/m² 0 min 39 W/m² 19,3 km/h (3 Bft) 97,87 %
29.04.2026 19:12 18,1 °C 17,2 °C 13,3 °C 48 % 1024,5 hPa 0,0 l/m² 0 min 37 W/m² 12,9 km/h (3 Bft) 98,00 %
29.04.2026 19:14 17,9 °C 17,2 °C 13,3 °C 47 % 1024,5 hPa 0,0 l/m² 0 min 37 W/m² 16,1 km/h (3 Bft) 96,23 %
29.04.2026 19:16 17,8 °C 17,2 °C 13,3 °C 48 % 1024,5 hPa 0,0 l/m² 0 min 37 W/m² 12,9 km/h (3 Bft) 97,37 %
29.04.2026 19:18 17,7 °C 17,2 °C 13,3 °C 48 % 1024,5 hPa 0,0 l/m² 0 min 35 W/m² 12,9 km/h (3 Bft) 97,87 %
29.04.2026 19:20 17,6 °C 17,2 °C 13,3 °C 47 % 1024,6 hPa 0,0 l/m² 0 min 35 W/m² 19,3 km/h (3 Bft) 97,83 %
29.04.2026 19:22 17,6 °C 17,2 °C 13,3 °C 48 % 1024,5 hPa 0,0 l/m² 0 min 33 W/m² 19,3 km/h (3 Bft) 98,00 %
29.04.2026 19:24 17,5 °C 17,2 °C 13,3 °C 48 % 1024,6 hPa 0,0 l/m² 0 min 33 W/m² 16,1 km/h (3 Bft) 97,87 %
29.04.2026 19:26 17,5 °C 16,7 °C 12,8 °C 48 % 1024,5 hPa 0,0 l/m² 0 min 33 W/m² 16,1 km/h (3 Bft) 100,00 %
29.04.2026 19:28 17,4 °C 16,7 °C 12,8 °C 48 % 1024,6 hPa 0,0 l/m² 0 min 33 W/m² 9,7 km/h (2 Bft) 100,00 %
29.04.2026 19:30 17,3 °C 16,7 °C 12,8 °C 48 % 1024,6 hPa 0,0 l/m² 0 min 32 W/m² 12,9 km/h (3 Bft) 100,00 %
29.04.2026 19:32 17,3 °C 16,7 °C 12,8 °C 48 % 1024,6 hPa 0,0 l/m² 0 min 32 W/m² 16,1 km/h (3 Bft) 100,00 %
29.04.2026 19:34 17,3 °C 16,7 °C 12,8 °C 48 % 1024,5 hPa 0,0 l/m² 0 min 32 W/m² 19,3 km/h (3 Bft) 98,00 %
29.04.2026 19:36 17,2 °C 16,7 °C 12,8 °C 48 % 1024,6 hPa 0,0 l/m² 0 min 32 W/m² 22,5 km/h (4 Bft) 100,00 %
29.04.2026 19:38 17,2 °C 16,7 °C 12,8 °C 48 % 1024,6 hPa 0,0 l/m² 0 min 30 W/m² 19,3 km/h (3 Bft) 100,00 %
29.04.2026 19:40 17,1 °C 16,7 °C 12,8 °C 49 % 1024,6 hPa 0,0 l/m² 0 min 30 W/m² 12,9 km/h (3 Bft) 100,00 %
29.04.2026 19:42 17,1 °C 16,1 °C 12,8 °C 49 % 1024,7 hPa 0,0 l/m² 0 min 28 W/m² 12,9 km/h (3 Bft) 100,00 %
29.04.2026 19:44 17,0 °C 16,1 °C 12,8 °C 48 % 1024,6 hPa 0,0 l/m² 0 min 28 W/m² 19,3 km/h (3 Bft) 100,00 %
29.04.2026 19:46 16,9 °C 16,1 °C 12,8 °C 48 % 1024,7 hPa 0,0 l/m² 0 min 28 W/m² 16,1 km/h (3 Bft) 100,00 %
29.04.2026 19:48 16,9 °C 16,1 °C 12,8 °C 48 % 1024,7 hPa 0,0 l/m² 0 min 26 W/m² 12,9 km/h (3 Bft) 97,87 %
29.04.2026 19:50 16,9 °C 16,1 °C 12,2 °C 50 % 1024,7 hPa 0,0 l/m² 0 min 26 W/m² 9,7 km/h (2 Bft) 100,00 %
29.04.2026 19:52 16,8 °C 16,1 °C 12,2 °C 49 % 1024,7 hPa 0,0 l/m² 0 min 25 W/m² 16,1 km/h (3 Bft) 100,00 %
29.04.2026 19:54 16,8 °C 16,1 °C 12,8 °C 49 % 1024,7 hPa 0,0 l/m² 0 min 25 W/m² 19,3 km/h (3 Bft) 97,37 %
29.04.2026 19:56 16,8 °C 16,1 °C 12,8 °C 49 % 1024,7 hPa 0,0 l/m² 0 min 24 W/m² 9,7 km/h (2 Bft) 100,00 %
29.04.2026 19:58 16,7 °C 16,1 °C 12,2 °C 49 % 1024,7 hPa 0,0 l/m² 0 min 23 W/m² 19,3 km/h (3 Bft) 100,00 %
29.04.2026 20:00 16,7 °C 16,1 °C 12,2 °C 48 % 1024,7 hPa 0,0 l/m² 0 min 23 W/m² 16,1 km/h (3 Bft) 100,00 %
29.04.2026 20:02 16,6 °C 15,6 °C 12,2 °C 49 % 1024,8 hPa 0,0 l/m² 0 min 21 W/m² 16,1 km/h (3 Bft) 100,00 %
29.04.2026 20:04 16,6 °C 15,6 °C 12,2 °C 49 % 1024,8 hPa 0,0 l/m² 0 min 21 W/m² 19,3 km/h (3 Bft) 100,00 %
29.04.2026 20:06 16,6 °C 15,6 °C 12,2 °C 49 % 1024,8 hPa 0,0 l/m² 0 min 21 W/m² 12,9 km/h (3 Bft) 95,12 %
29.04.2026 20:08 16,5 °C 15,6 °C 12,2 °C 49 % 1024,8 hPa 0,0 l/m² 0 min 19 W/m² 12,9 km/h (3 Bft) 98,08 %
29.04.2026 20:10 16,5 °C 15,6 °C 12,2 °C 49 % 1024,9 hPa 0,0 l/m² 0 min 19 W/m² 16,1 km/h (3 Bft) 100,00 %
29.04.2026 20:12 16,4 °C 15,6 °C 12,2 °C 49 % 1025,0 hPa 0,0 l/m² 0 min 19 W/m² 19,3 km/h (3 Bft) 100,00 %
29.04.2026 20:14 16,4 °C 15,6 °C 12,2 °C 49 % 1024,9 hPa 0,0 l/m² 0 min 18 W/m² 12,9 km/h (3 Bft) 97,56 %
29.04.2026 20:16 16,3 °C 15,6 °C 11,7 °C 49 % 1025,0 hPa 0,0 l/m² 0 min 18 W/m² 12,9 km/h (3 Bft) 98,00 %
29.04.2026 20:18 16,3 °C 15,6 °C 11,7 °C 50 % 1025,0 hPa 0,0 l/m² 0 min 17 W/m² 6,4 km/h (2 Bft) 100,00 %
29.04.2026 20:20 16,3 °C 15,0 °C 11,7 °C 50 % 1025,0 hPa 0,0 l/m² 0 min 16 W/m² 6,4 km/h (2 Bft) 100,00 %
29.04.2026 20:22 16,2 °C 15,0 °C 11,7 °C 50 % 1025,0 hPa 0,0 l/m² 0 min 16 W/m² 12,9 km/h (3 Bft) 100,00 %
29.04.2026 20:24 16,2 °C 15,0 °C 11,7 °C 50 % 1025,1 hPa 0,0 l/m² 0 min 14 W/m² 16,1 km/h (3 Bft) 97,96 %
29.04.2026 20:26 16,1 °C 15,0 °C 11,7 °C 50 % 1025,0 hPa 0,0 l/m² 0 min 14 W/m² 9,7 km/h (2 Bft) 97,87 %
29.04.2026 20:28 16,1 °C 15,0 °C 11,7 °C 50 % 1025,1 hPa 0,0 l/m² 0 min 13 W/m² 9,7 km/h (2 Bft) 97,87 %
29.04.2026 20:30 16,0 °C 15,0 °C 11,7 °C 50 % 1025,1 hPa 0,0 l/m² 0 min 12 W/m² 12,9 km/h (3 Bft) 97,87 %
29.04.2026 20:32 15,9 °C 15,0 °C 11,7 °C 50 % 1025,1 hPa 0,0 l/m² 0 min 11 W/m² 12,9 km/h (3 Bft) 95,74 %
29.04.2026 20:34 15,9 °C 15,0 °C 11,7 °C 50 % 1025,2 hPa 0,0 l/m² 0 min 11 W/m² 19,3 km/h (3 Bft) 97,87 %
29.04.2026 20:36 15,8 °C 15,0 °C 11,1 °C 50 % 1025,2 hPa 0,0 l/m² 0 min 10 W/m² 16,1 km/h (3 Bft) 97,87 %
29.04.2026 20:38 15,8 °C 15,0 °C 11,1 °C 49 % 1025,3 hPa 0,0 l/m² 0 min 9 W/m² 12,9 km/h (3 Bft) 97,83 %
29.04.2026 20:40 15,8 °C 14,4 °C 11,1 °C 50 % 1025,2 hPa 0,0 l/m² 0 min 9 W/m² 12,9 km/h (3 Bft) 97,87 %
29.04.2026 20:42 15,7 °C 14,4 °C 11,1 °C 49 % 1025,3 hPa 0,0 l/m² 0 min 7 W/m² 16,1 km/h (3 Bft) 97,87 %
29.04.2026 20:44 15,7 °C 14,4 °C 11,1 °C 50 % 1025,2 hPa 0,0 l/m² 0 min 7 W/m² 12,9 km/h (3 Bft) 97,87 %
29.04.2026 20:46 15,6 °C 14,4 °C 11,1 °C 50 % 1025,3 hPa 0,0 l/m² 0 min 7 W/m² 9,7 km/h (2 Bft) 93,62 %
29.04.2026 20:48 15,6 °C 14,4 °C 11,1 °C 49 % 1025,3 hPa 0,0 l/m² 0 min 5 W/m² 9,7 km/h (2 Bft) 95,74 %
29.04.2026 20:50 15,5 °C 14,4 °C 11,1 °C 50 % 1025,3 hPa 0,0 l/m² 0 min 5 W/m² 19,3 km/h (3 Bft) 95,74 %
29.04.2026 20:52 15,4 °C 14,4 °C 11,1 °C 51 % 1025,4 hPa 0,0 l/m² 0 min 5 W/m² 9,7 km/h (2 Bft) 93,62 %
29.04.2026 20:54 15,4 °C 13,9 °C 11,1 °C 50 % 1025,4 hPa 0,0 l/m² 0 min 1 W/m² 9,7 km/h (2 Bft) 93,48 %
29.04.2026 20:56 15,3 °C 13,9 °C 10,6 °C 51 % 1025,4 hPa 0,0 l/m² 0 min 0 W/m² 9,7 km/h (2 Bft) 90,00 %
29.04.2026 20:58 15,3 °C 13,9 °C 10,6 °C 50 % 1025,5 hPa 0,0 l/m² 0 min 0 W/m² 16,1 km/h (3 Bft) 91,49 %
29.04.2026 21:00 15,2 °C 13,9 °C 10,6 °C 50 % 1025,5 hPa 0,0 l/m² 0 min 0 W/m² 9,7 km/h (2 Bft) 93,62 %
29.04.2026 21:02 15,2 °C 13,9 °C 10,6 °C 50 % 1025,5 hPa 0,0 l/m² 0 min 0 W/m² 6,4 km/h (2 Bft) 93,62 %
29.04.2026 21:04 15,1 °C 13,9 °C 10,6 °C 50 % 1025,5 hPa 0,0 l/m² 0 min 0 W/m² 9,7 km/h (2 Bft) 91,49 %
29.04.2026 21:06 15,1 °C 13,9 °C 10,6 °C 50 % 1025,6 hPa 0,0 l/m² 0 min 0 W/m² 16,1 km/h (3 Bft) 96,00 %
29.04.2026 21:08 15,0 °C 13,9 °C 10,6 °C 51 % 1025,6 hPa 0,0 l/m² 0 min 0 W/m² 6,4 km/h (2 Bft) 97,14 %
29.04.2026 21:10 14,9 °C 13,9 °C 10,6 °C 51 % 1025,6 hPa 0,0 l/m² 0 min 0 W/m² 6,4 km/h (2 Bft) 95,74 %
29.04.2026 21:12 14,8 °C 13,3 °C 10,6 °C 50 % 1025,6 hPa 0,0 l/m² 0 min 0 W/m² 9,7 km/h (2 Bft) 95,65 %
29.04.2026 21:14 14,8 °C 13,3 °C 10,6 °C 51 % 1025,7 hPa 0,0 l/m² 0 min 0 W/m² 9,7 km/h (2 Bft) 92,59 %
29.04.2026 21:16 14,7 °C 13,3 °C 10,6 °C 51 % 1025,7 hPa 0,0 l/m² 0 min 0 W/m² 9,7 km/h (2 Bft) 97,87 %
29.04.2026 21:18 14,7 °C 13,3 °C 10,0 °C 50 % 1025,7 hPa 0,0 l/m² 0 min 0 W/m² 9,7 km/h (2 Bft) 97,87 %
29.04.2026 21:20 14,6 °C 13,3 °C 10,0 °C 51 % 1025,7 hPa 0,0 l/m² 0 min 0 W/m² 9,7 km/h (2 Bft) 100,00 %
29.04.2026 21:22 14,6 °C 13,3 °C 10,0 °C 50 % 1025,8 hPa 0,0 l/m² 0 min 0 W/m² 9,7 km/h (2 Bft) 97,87 %
29.04.2026 21:24 14,5 °C 13,3 °C 10,0 °C 50 % 1025,8 hPa 0,0 l/m² 0 min 0 W/m² 16,1 km/h (3 Bft) 97,87 %
29.04.2026 21:26 14,4 °C 13,3 °C 10,0 °C 50 % 1025,9 hPa 0,0 l/m² 0 min 0 W/m² 6,4 km/h (2 Bft) 95,65 %
29.04.2026 21:28 14,4 °C 13,3 °C 10,0 °C 51 % 1025,9 hPa 0,0 l/m² 0 min 0 W/m² 9,7 km/h (2 Bft) 95,74 %
29.04.2026 21:30 14,3 °C 13,3 °C 10,0 °C 52 % 1025,9 hPa 0,0 l/m² 0 min 0 W/m² 9,7 km/h (2 Bft) 97,87 %
29.04.2026 21:32 14,3 °C 13,3 °C 10,0 °C 50 % 1026,0 hPa 0,0 l/m² 0 min 0 W/m² 6,4 km/h (2 Bft) 95,74 %
29.04.2026 21:34 14,3 °C 12,8 °C 10,0 °C 51 % 1026,0 hPa 0,0 l/m² 0 min 0 W/m² 6,4 km/h (2 Bft) 97,87 %
29.04.2026 21:36 14,3 °C 12,8 °C 10,0 °C 51 % 1026,0 hPa 0,0 l/m² 0 min 0 W/m² 9,7 km/h (2 Bft) 97,87 %
29.04.2026 21:38 14,3 °C 12,8 °C 10,0 °C 51 % 1026,0 hPa 0,0 l/m² 0 min 0 W/m² 6,4 km/h (2 Bft) 97,56 %
29.04.2026 21:40 14,2 °C 12,8 °C 9,4 °C 50 % 1026,0 hPa 0,0 l/m² 0 min 0 W/m² 9,7 km/h (2 Bft) 95,74 %
29.04.2026 21:42 14,2 °C 12,8 °C 9,4 °C 51 % 1026,0 hPa 0,0 l/m² 0 min 0 W/m² 6,4 km/h (2 Bft) 100,00 %
29.04.2026 21:44 14,1 °C 12,8 °C 9,4 °C 51 % 1026,1 hPa 0,0 l/m² 0 min 0 W/m² 6,4 km/h (2 Bft) 100,00 %
29.04.2026 21:46 14,1 °C 12,8 °C 9,4 °C 51 % 1026,1 hPa 0,0 l/m² 0 min 0 W/m² 12,9 km/h (3 Bft) 97,83 %
29.04.2026 21:48 14,1 °C 12,8 °C 9,4 °C 51 % 1026,1 hPa 0,0 l/m² 0 min 0 W/m² 9,7 km/h (2 Bft) 100,00 %
29.04.2026 21:50 14,0 °C 12,8 °C 9,4 °C 52 % 1026,1 hPa 0,0 l/m² 0 min 0 W/m² 9,7 km/h (2 Bft) 100,00 %
29.04.2026 21:52 13,9 °C 12,8 °C 9,4 °C 51 % 1026,2 hPa 0,0 l/m² 0 min 0 W/m² 12,9 km/h (3 Bft) 97,87 %
29.04.2026 21:54 13,9 °C 12,8 °C 9,4 °C 52 % 1026,2 hPa 0,0 l/m² 0 min 0 W/m² 12,9 km/h (3 Bft) 98,00 %
29.04.2026 21:56 13,8 °C 12,8 °C 9,4 °C 52 % 1026,2 hPa 0,0 l/m² 0 min 0 W/m² 9,7 km/h (2 Bft) 100,00 %
29.04.2026 21:58 13,8 °C 12,8 °C 9,4 °C 52 % 1026,3 hPa 0,0 l/m² 0 min 0 W/m² 9,7 km/h (2 Bft) 100,00 %
29.04.2026 22:00 13,8 °C 12,8 °C 9,4 °C 52 % 1026,3 hPa 0,0 l/m² 0 min 0 W/m² 6,4 km/h (2 Bft) 100,00 %
29.04.2026 22:02 13,7 °C 12,2 °C 9,4 °C 52 % 1026,3 hPa 0,0 l/m² 0 min 0 W/m² 6,4 km/h (2 Bft) 100,00 %
29.04.2026 22:04 13,7 °C 12,2 °C 9,4 °C 53 % 1026,3 hPa 0,0 l/m² 0 min 0 W/m² 6,4 km/h (2 Bft) 100,00 %
29.04.2026 22:06 13,6 °C 12,2 °C 8,9 °C 52 % 1026,4 hPa 0,0 l/m² 0 min 0 W/m² 9,7 km/h (2 Bft) 100,00 %
29.04.2026 22:08 13,6 °C 12,2 °C 8,9 °C 53 % 1026,3 hPa 0,0 l/m² 0 min 0 W/m² 6,4 km/h (2 Bft) 97,87 %
29.04.2026 22:10 13,5 °C 12,2 °C 8,9 °C 53 % 1026,4 hPa 0,0 l/m² 0 min 0 W/m² 6,4 km/h (2 Bft) 100,00 %
29.04.2026 22:12 13,4 °C 12,2 °C 8,9 °C 53 % 1026,4 hPa 0,0 l/m² 0 min 0 W/m² 6,4 km/h (2 Bft) 97,87 %
29.04.2026 22:14 13,4 °C 12,2 °C 8,9 °C 54 % 1026,4 hPa 0,0 l/m² 0 min 0 W/m² 6,4 km/h (2 Bft) 100,00 %
29.04.2026 22:16 13,3 °C 11,7 °C 8,9 °C 54 % 1026,4 hPa 0,0 l/m² 0 min 0 W/m² 6,4 km/h (2 Bft) 100,00 %
29.04.2026 22:18 13,3 °C 11,7 °C 8,9 °C 54 % 1026,5 hPa 0,0 l/m² 0 min 0 W/m² 9,7 km/h (2 Bft) 47,37 %
29.04.2026 22:20 13,2 °C 11,7 °C 8,9 °C 54 % 1026,5 hPa 0,0 l/m² 0 min 0 W/m² 9,7 km/h (2 Bft) 97,73 %
29.04.2026 22:22 13,2 °C 11,7 °C 8,9 °C 54 % 1026,5 hPa 0,0 l/m² 0 min 0 W/m² 6,4 km/h (2 Bft) 100,00 %
29.04.2026 22:24 13,1 °C 11,7 °C 8,9 °C 54 % 1026,6 hPa 0,0 l/m² 0 min 0 W/m² 9,7 km/h (2 Bft) 100,00 %
29.04.2026 22:26 13,1 °C 11,7 °C 8,9 °C 55 % 1026,6 hPa 0,0 l/m² 0 min 0 W/m² 6,4 km/h (2 Bft) 100,00 %
29.04.2026 22:28 13,1 °C 11,7 °C 8,9 °C 55 % 1026,6 hPa 0,0 l/m² 0 min 0 W/m² 6,4 km/h (2 Bft) 100,00 %
29.04.2026 22:30 13,0 °C 11,7 °C 8,9 °C 55 % 1026,6 hPa 0,0 l/m² 0 min 0 W/m² 6,4 km/h (2 Bft) 100,00 %
29.04.2026 22:32 13,0 °C 11,7 °C 8,9 °C 55 % 1026,6 hPa 0,0 l/m² 0 min 0 W/m² 3,2 km/h (1 Bft) 95,65 %
29.04.2026 22:34 12,9 °C 11,7 °C 8,9 °C 55 % 1026,7 hPa 0,0 l/m² 0 min 0 W/m² 12,9 km/h (3 Bft) 93,62 %
29.04.2026 22:36 12,9 °C 11,7 °C 8,9 °C 55 % 1026,7 hPa 0,0 l/m² 0 min 0 W/m² 6,4 km/h (2 Bft) 97,87 %
29.04.2026 22:38 12,9 °C 11,7 °C 8,3 °C 56 % 1026,7 hPa 0,0 l/m² 0 min 0 W/m² 9,7 km/h (2 Bft) 97,87 %
29.04.2026 22:40 12,8 °C 11,7 °C 8,3 °C 57 % 1026,7 hPa 0,0 l/m² 0 min 0 W/m² 6,4 km/h (2 Bft) 97,87 %
29.04.2026 22:42 12,8 °C 11,7 °C 8,3 °C 56 % 1026,7 hPa 0,0 l/m² 0 min 0 W/m² 6,4 km/h (2 Bft) 95,74 %
29.04.2026 22:44 12,8 °C 11,7 °C 8,3 °C 56 % 1026,8 hPa 0,0 l/m² 0 min 0 W/m² 9,7 km/h (2 Bft) 95,74 %
29.04.2026 22:46 12,7 °C 11,7 °C 8,3 °C 57 % 1026,8 hPa 0,0 l/m² 0 min 0 W/m² 6,4 km/h (2 Bft) 95,74 %
29.04.2026 22:48 12,7 °C 11,7 °C 8,3 °C 56 % 1026,7 hPa 0,0 l/m² 0 min 0 W/m² 6,4 km/h (2 Bft) 95,65 %
29.04.2026 22:50 12,7 °C 11,7 °C 8,3 °C 56 % 1026,8 hPa 0,0 l/m² 0 min 0 W/m² 9,7 km/h (2 Bft) 95,74 %
29.04.2026 22:52 12,6 °C 11,7 °C 8,3 °C 56 % 1026,8 hPa 0,0 l/m² 0 min 0 W/m² 6,4 km/h (2 Bft) 95,74 %
29.04.2026 22:54 12,6 °C 11,7 °C 8,3 °C 57 % 1026,8 hPa 0,0 l/m² 0 min 0 W/m² 6,4 km/h (2 Bft) 91,49 %
29.04.2026 22:56 12,6 °C 11,7 °C 8,3 °C 56 % 1026,8 hPa 0,0 l/m² 0 min 0 W/m² 9,7 km/h (2 Bft) 95,74 %
29.04.2026 22:58 12,6 °C 11,7 °C 8,3 °C 57 % 1026,8 hPa 0,0 l/m² 0 min 0 W/m² 12,9 km/h (3 Bft) 95,74 %
29.04.2026 23:00 12,5 °C 11,7 °C 8,3 °C 56 % 1026,9 hPa 0,0 l/m² 0 min 0 W/m² 9,7 km/h (2 Bft) 97,87 %
29.04.2026 23:02 12,5 °C 11,7 °C 8,3 °C 57 % 1026,8 hPa 0,0 l/m² 0 min 0 W/m² 6,4 km/h (2 Bft) 94,74 %
29.04.2026 23:04 12,5 °C 11,1 °C 8,3 °C 57 % 1026,8 hPa 0,0 l/m² 0 min 0 W/m² 3,2 km/h (1 Bft) 98,00 %
29.04.2026 23:06 12,4 °C 11,1 °C 7,8 °C 57 % 1026,9 hPa 0,0 l/m² 0 min 0 W/m² 9,7 km/h (2 Bft) 97,83 %
29.04.2026 23:08 12,4 °C 11,1 °C 8,3 °C 56 % 1026,9 hPa 0,0 l/m² 0 min 0 W/m² 12,9 km/h (3 Bft) 97,87 %
29.04.2026 23:10 12,4 °C 11,1 °C 7,8 °C 58 % 1026,9 hPa 0,0 l/m² 0 min 0 W/m² 9,7 km/h (2 Bft) 97,87 %
29.04.2026 23:12 12,4 °C 11,1 °C 7,8 °C 57 % 1026,9 hPa 0,0 l/m² 0 min 0 W/m² 3,2 km/h (1 Bft) 97,96 %
29.04.2026 23:14 12,3 °C 11,1 °C 7,8 °C 57 % 1026,9 hPa 0,0 l/m² 0 min 0 W/m² 6,4 km/h (2 Bft) 97,87 %
29.04.2026 23:16 12,3 °C 11,1 °C 7,8 °C 57 % 1027,0 hPa 0,0 l/m² 0 min 0 W/m² 9,7 km/h (2 Bft) 98,00 %
29.04.2026 23:18 12,3 °C 11,1 °C 7,8 °C 57 % 1027,0 hPa 0,0 l/m² 0 min 0 W/m² 6,4 km/h (2 Bft) 100,00 %
29.04.2026 23:20 12,2 °C 11,1 °C 7,8 °C 58 % 1026,9 hPa 0,0 l/m² 0 min 0 W/m² 6,4 km/h (2 Bft) 100,00 %
29.04.2026 23:22 12,2 °C 11,1 °C 7,8 °C 58 % 1027,0 hPa 0,0 l/m² 0 min 0 W/m² 6,4 km/h (2 Bft) 100,00 %
29.04.2026 23:24 12,1 °C 11,1 °C 7,8 °C 57 % 1027,1 hPa 0,0 l/m² 0 min 0 W/m² 6,4 km/h (2 Bft) 100,00 %
29.04.2026 23:26 12,1 °C 10,6 °C 7,8 °C 58 % 1027,0 hPa 0,0 l/m² 0 min 0 W/m² 6,4 km/h (2 Bft) 100,00 %
29.04.2026 23:28 12,0 °C 10,6 °C 7,8 °C 58 % 1027,0 hPa 0,0 l/m² 0 min 0 W/m² 6,4 km/h (2 Bft) 100,00 %
29.04.2026 23:30 12,0 °C 10,6 °C 7,2 °C 58 % 1027,0 hPa 0,0 l/m² 0 min 0 W/m² 6,4 km/h (2 Bft) 100,00 %
29.04.2026 23:32 11,9 °C 10,6 °C 7,8 °C 58 % 1027,1 hPa 0,0 l/m² 0 min 0 W/m² 6,4 km/h (2 Bft) 100,00 %
29.04.2026 23:34 11,9 °C 10,6 °C 7,2 °C 58 % 1027,1 hPa 0,0 l/m² 0 min 0 W/m² 6,4 km/h (2 Bft) 100,00 %
29.04.2026 23:36 11,8 °C 10,6 °C 7,2 °C 58 % 1027,1 hPa 0,0 l/m² 0 min 0 W/m² 9,7 km/h (2 Bft) 100,00 %
29.04.2026 23:38 11,8 °C 10,6 °C 7,2 °C 59 % 1027,1 hPa 0,0 l/m² 0 min 0 W/m² 6,4 km/h (2 Bft) 100,00 %
29.04.2026 23:40 11,7 °C 10,6 °C 7,2 °C 59 % 1027,1 hPa 0,0 l/m² 0 min 0 W/m² 6,4 km/h (2 Bft) 100,00 %
29.04.2026 23:42 11,7 °C 10,6 °C 7,2 °C 59 % 1027,1 hPa 0,0 l/m² 0 min 0 W/m² 6,4 km/h (2 Bft) 100,00 %
29.04.2026 23:44 11,6 °C 10,0 °C 7,2 °C 59 % 1027,1 hPa 0,0 l/m² 0 min 0 W/m² 6,4 km/h (2 Bft) 100,00 %
29.04.2026 23:46 11,6 °C 10,0 °C 7,2 °C 59 % 1027,2 hPa 0,0 l/m² 0 min 0 W/m² 3,2 km/h (1 Bft) 100,00 %
29.04.2026 23:48 11,6 °C 10,0 °C 7,2 °C 59 % 1027,2 hPa 0,0 l/m² 0 min 0 W/m² 12,9 km/h (3 Bft) 100,00 %
29.04.2026 23:50 11,5 °C 10,0 °C 7,2 °C 59 % 1027,2 hPa 0,0 l/m² 0 min 0 W/m² 9,7 km/h (2 Bft) 100,00 %
29.04.2026 23:52 11,4 °C 10,0 °C 7,2 °C 59 % 1027,2 hPa 0,0 l/m² 0 min 0 W/m² 6,4 km/h (2 Bft) 100,00 %
29.04.2026 23:54 11,4 °C 10,0 °C 7,2 °C 60 % 1027,3 hPa 0,0 l/m² 0 min 0 W/m² 3,2 km/h (1 Bft) 100,00 %
29.04.2026 23:56 11,4 °C 10,0 °C 7,2 °C 60 % 1027,3 hPa 0,0 l/m² 0 min 0 W/m² 6,4 km/h (2 Bft) 97,87 %
29.04.2026 23:58 11,3 °C 10,0 °C 7,2 °C 60 % 1027,4 hPa 0,0 l/m² 0 min 0 W/m² 9,7 km/h (2 Bft) 97,87 %
_ Min-Zeit 06:50 05:46 06:20 17:32 00:00 - - - 00:54 22:18
Minimum _ 6,9 °C 6,1 °C 2,8 °C 36 % 1023,7 hPa - - - 0,0 km/h (0 Bft) 47,37 %
_ Max-Zeit 15:50 14:38 13:18 06:52 23:58 00:00 08:28 13:26 14:16 00:00
Maximum _ 21,5 °C 31,7 °C 22,8 °C 71 % 1027,4 hPa 0,0 l/m² 2 min 868 W/m² 45,1 km/h
O-SO (6 Bft)
100,00 %
Durchschnitt _ 14,2 °C 16,6 °C 10,7 °C 53 % 1025,2 hPa #0,0 l/m² #10:24 h 476 W/m² 12,6 km/h (3 Bft) 97,43 %
© 2026 W. Hausmann